<?xml version="1.0" encoding="UTF-8" standalone="no" ?>
<gpx xmlns="http://www.topografix.com/GPX/1/1" creator="MapSource 6.16.3" version="1.1" xmlns:xsi="http://www.w3.org/2001/XMLSchema-instance" xsi:schemaLocation="http://www.topografix.com/GPX/1/1 http://www.topografix.com/GPX/1/1/gpx.xsd">

  <metadata>
    <link href="http://www.garmin.com">
      <text>Garmin International</text>
    </link>
    <time>2016-09-17T12:13:41Z</time>
    <bounds maxlat="45.892596244812012" maxlon="8.812408447265625" minlat="45.833283299580216" minlon="8.701729774475098"/>
  </metadata>

  <wpt lat="45.833283299580216" lon="8.80044998601079">
    <name>ARRIVO</name>
    <cmt>Parco Del Campo Dei Fiori</cmt>
    <desc>Parco Del Campo Dei Fiori</desc>
    <sym>Diamond, Green</sym>
    <extensions>
      <gpxx:WaypointExtension xmlns:gpxx="http://www.garmin.com/xmlschemas/GpxExtensions/v3">
        <gpxx:DisplayMode>SymbolAndName</gpxx:DisplayMode>
      </gpxx:WaypointExtension>
    </extensions>
  </wpt>

  <wpt lat="45.835950002074242" lon="8.798683332279325">
    <name>PARTENZA</name>
    <cmt>Parco Del Campo Dei Fiori</cmt>
    <desc>Parco Del Campo Dei Fiori</desc>
    <sym>Trail Head</sym>
    <extensions>
      <gpxx:WaypointExtension xmlns:gpxx="http://www.garmin.com/xmlschemas/GpxExtensions/v3">
        <gpxx:DisplayMode>SymbolAndName</gpxx:DisplayMode>
      </gpxx:WaypointExtension>
    </extensions>
  </wpt>

  <trk>
    <name>ACTIVE LOG</name>
    <extensions>
      <gpxx:TrackExtension xmlns:gpxx="http://www.garmin.com/xmlschemas/GpxExtensions/v3">
        <gpxx:DisplayColor>Red</gpxx:DisplayColor>
      </gpxx:TrackExtension>
    </extensions>
    <trkseg>
      <trkpt lat="45.83594799041748" lon="8.798675537109375">
        <ele>700.9384765625</ele>
        <time>2008-02-03T09:13:00Z</time>
      </trkpt>
      <trkpt lat="45.836119651794434" lon="8.798654079437256">
        <ele>700.9384765625</ele>
        <time>2008-02-03T09:13:05Z</time>
      </trkpt>
      <trkpt lat="45.836226940155029" lon="8.798675537109375">
        <ele>700.9384765625</ele>
        <time>2008-02-03T09:13:08Z</time>
      </trkpt>
      <trkpt lat="45.836291313171387" lon="8.798825740814209">
        <ele>700.9384765625</ele>
        <time>2008-02-03T09:13:12Z</time>
      </trkpt>
      <trkpt lat="45.836420059204102" lon="8.799147605895996">
        <ele>700.9384765625</ele>
        <time>2008-02-03T09:13:20Z</time>
      </trkpt>
      <trkpt lat="45.836677551269531" lon="8.799383640289307">
        <ele>700.9384765625</ele>
        <time>2008-02-03T09:13:31Z</time>
      </trkpt>
      <trkpt lat="45.836763381958008" lon="8.799405097961426">
        <ele>700.9384765625</ele>
        <time>2008-02-03T09:13:34Z</time>
      </trkpt>
      <trkpt lat="45.837128162384033" lon="8.799276351928711">
        <ele>700.9384765625</ele>
        <time>2008-02-03T09:13:44Z</time>
      </trkpt>
      <trkpt lat="45.837793350219727" lon="8.7990403175354">
        <ele>700.9384765625</ele>
        <time>2008-02-03T09:14:03Z</time>
      </trkpt>
      <trkpt lat="45.838437080383301" lon="8.798825740814209">
        <ele>700.9384765625</ele>
        <time>2008-02-03T09:14:24Z</time>
      </trkpt>
      <trkpt lat="45.838844776153564" lon="8.798675537109375">
        <ele>700.9384765625</ele>
        <time>2008-02-03T09:14:38Z</time>
      </trkpt>
      <trkpt lat="45.839145183563232" lon="8.798611164093018">
        <ele>700.9384765625</ele>
        <time>2008-02-03T09:14:49Z</time>
      </trkpt>
      <trkpt lat="45.839338302612305" lon="8.798632621765137">
        <ele>700.9384765625</ele>
        <time>2008-02-03T09:15:01Z</time>
      </trkpt>
      <trkpt lat="45.839552879333496" lon="8.798825740814209">
        <ele>700.9384765625</ele>
        <time>2008-02-03T09:15:13Z</time>
      </trkpt>
      <trkpt lat="45.840046405792236" lon="8.799211978912354">
        <ele>700.9384765625</ele>
        <time>2008-02-03T09:15:39Z</time>
      </trkpt>
      <trkpt lat="45.840175151824951" lon="8.799254894256592">
        <ele>700.9384765625</ele>
        <time>2008-02-03T09:15:46Z</time>
      </trkpt>
      <trkpt lat="45.840218067169189" lon="8.799169063568115">
        <ele>700.9384765625</ele>
        <time>2008-02-03T09:15:50Z</time>
      </trkpt>
      <trkpt lat="45.838909149169922" lon="8.798739910125732">
        <ele>433.69189453125</ele>
        <time>2008-02-03T09:16:00Z</time>
      </trkpt>
      <trkpt lat="45.838909149169922" lon="8.798139095306397">
        <ele>432.730712890625</ele>
        <time>2008-02-03T09:16:08Z</time>
      </trkpt>
      <trkpt lat="45.838930606842041" lon="8.797903060913086">
        <ele>433.2113037109375</ele>
        <time>2008-02-03T09:16:12Z</time>
      </trkpt>
      <trkpt lat="45.838973522186279" lon="8.797860145568848">
        <ele>433.69189453125</ele>
        <time>2008-02-03T09:16:14Z</time>
      </trkpt>
      <trkpt lat="45.839123725891113" lon="8.797924518585205">
        <ele>433.69189453125</ele>
        <time>2008-02-03T09:16:20Z</time>
      </trkpt>
      <trkpt lat="45.839188098907471" lon="8.797967433929443">
        <ele>433.69189453125</ele>
        <time>2008-02-03T09:16:27Z</time>
      </trkpt>
      <trkpt lat="45.83920955657959" lon="8.797967433929443">
        <ele>433.69189453125</ele>
        <time>2008-02-03T09:16:36Z</time>
      </trkpt>
      <trkpt lat="45.839231014251709" lon="8.798010349273682">
        <ele>434.172607421875</ele>
        <time>2008-02-03T09:16:40Z</time>
      </trkpt>
      <trkpt lat="45.8394455909729" lon="8.798160552978516">
        <ele>433.69189453125</ele>
        <time>2008-02-03T09:16:48Z</time>
      </trkpt>
      <trkpt lat="45.839896202087402" lon="8.798482418060303">
        <ele>433.2113037109375</ele>
        <time>2008-02-03T09:17:04Z</time>
      </trkpt>
      <trkpt lat="45.840239524841309" lon="8.798654079437256">
        <ele>433.69189453125</ele>
        <time>2008-02-03T09:17:17Z</time>
      </trkpt>
      <trkpt lat="45.840475559234619" lon="8.798696994781494">
        <ele>434.172607421875</ele>
        <time>2008-02-03T09:17:28Z</time>
      </trkpt>
      <trkpt lat="45.840797424316406" lon="8.798933029174805">
        <ele>432.730712890625</ele>
        <time>2008-02-03T09:17:42Z</time>
      </trkpt>
      <trkpt lat="45.840969085693359" lon="8.799211978912354">
        <ele>433.2113037109375</ele>
        <time>2008-02-03T09:17:52Z</time>
      </trkpt>
      <trkpt lat="45.841226577758789" lon="8.799469470977783">
        <ele>431.7691650390625</ele>
        <time>2008-02-03T09:18:07Z</time>
      </trkpt>
      <trkpt lat="45.841569900512695" lon="8.799576759338379">
        <ele>431.28857421875</ele>
        <time>2008-02-03T09:18:24Z</time>
      </trkpt>
      <trkpt lat="45.841848850250244" lon="8.799448013305664">
        <ele>432.730712890625</ele>
        <time>2008-02-03T09:18:37Z</time>
      </trkpt>
      <trkpt lat="45.842170715332031" lon="8.799104690551758">
        <ele>438.017822265625</ele>
        <time>2008-02-03T09:18:53Z</time>
      </trkpt>
      <trkpt lat="45.842471122741699" lon="8.798739910125732">
        <ele>438.9791259765625</ele>
        <time>2008-02-03T09:19:09Z</time>
      </trkpt>
      <trkpt lat="45.84270715713501" lon="8.798396587371826">
        <ele>440.90185546875</ele>
        <time>2008-02-03T09:19:24Z</time>
      </trkpt>
      <trkpt lat="45.842857360839844" lon="8.79805326461792">
        <ele>444.7470703125</ele>
        <time>2008-02-03T09:19:37Z</time>
      </trkpt>
      <trkpt lat="45.842921733856201" lon="8.797624111175537">
        <ele>449.072998046875</ele>
        <time>2008-02-03T09:19:52Z</time>
      </trkpt>
      <trkpt lat="45.84294319152832" lon="8.797409534454346">
        <ele>449.5537109375</ele>
        <time>2008-02-03T09:20:01Z</time>
      </trkpt>
      <trkpt lat="45.842921733856201" lon="8.797323703765869">
        <ele>452.918212890625</ele>
        <time>2008-02-03T09:20:09Z</time>
      </trkpt>
      <trkpt lat="45.84294319152832" lon="8.797280788421631">
        <ele>452.918212890625</ele>
        <time>2008-02-03T09:20:12Z</time>
      </trkpt>
      <trkpt lat="45.842964649200439" lon="8.797173500061035">
        <ele>464.4541015625</ele>
        <time>2008-02-03T09:20:24Z</time>
      </trkpt>
      <trkpt lat="45.842964649200439" lon="8.797087669372559">
        <ele>463.4927978515625</ele>
        <time>2008-02-03T09:21:13Z</time>
      </trkpt>
      <trkpt lat="45.842986106872559" lon="8.797087669372559">
        <ele>463.4927978515625</ele>
        <time>2008-02-03T09:21:14Z</time>
      </trkpt>
      <trkpt lat="45.843136310577393" lon="8.79680871963501">
        <ele>464.4541015625</ele>
        <time>2008-02-03T09:21:27Z</time>
      </trkpt>
      <trkpt lat="45.843265056610107" lon="8.796594142913818">
        <ele>464.4541015625</ele>
        <time>2008-02-03T09:21:36Z</time>
      </trkpt>
      <trkpt lat="45.84320068359375" lon="8.79655122756958">
        <ele>463.973388671875</ele>
        <time>2008-02-03T09:21:40Z</time>
      </trkpt>
      <trkpt lat="45.84294319152832" lon="8.796529769897461">
        <ele>463.973388671875</ele>
        <time>2008-02-03T09:21:51Z</time>
      </trkpt>
      <trkpt lat="45.842814445495605" lon="8.796336650848389">
        <ele>463.973388671875</ele>
        <time>2008-02-03T09:21:59Z</time>
      </trkpt>
      <trkpt lat="45.842728614807129" lon="8.796164989471436">
        <ele>467.338134765625</ele>
        <time>2008-02-03T09:22:08Z</time>
      </trkpt>
      <trkpt lat="45.842428207397461" lon="8.796014785766602">
        <ele>470.221923828125</ele>
        <time>2008-02-03T09:22:20Z</time>
      </trkpt>
      <trkpt lat="45.84219217300415" lon="8.795735836029053">
        <ele>471.183349609375</ele>
        <time>2008-02-03T09:22:31Z</time>
      </trkpt>
      <trkpt lat="45.842084884643555" lon="8.795435428619385">
        <ele>469.7413330078125</ele>
        <time>2008-02-03T09:22:41Z</time>
      </trkpt>
      <trkpt lat="45.842041969299316" lon="8.795113563537598">
        <ele>470.221923828125</ele>
        <time>2008-02-03T09:22:53Z</time>
      </trkpt>
      <trkpt lat="45.842020511627197" lon="8.794748783111572">
        <ele>471.183349609375</ele>
        <time>2008-02-03T09:23:06Z</time>
      </trkpt>
      <trkpt lat="45.842106342315674" lon="8.794705867767334">
        <ele>473.586669921875</ele>
        <time>2008-02-03T09:23:13Z</time>
      </trkpt>
      <trkpt lat="45.842106342315674" lon="8.794705867767334">
        <ele>474.0672607421875</ele>
        <time>2008-02-03T09:23:14Z</time>
      </trkpt>
      <trkpt lat="45.84221363067627" lon="8.794705867767334">
        <ele>475.9898681640625</ele>
        <time>2008-02-03T09:23:24Z</time>
      </trkpt>
      <trkpt lat="45.842363834381104" lon="8.794662952423096">
        <ele>476.9512939453125</ele>
        <time>2008-02-03T09:23:37Z</time>
      </trkpt>
      <trkpt lat="45.842471122741699" lon="8.794620037078857">
        <ele>476.9512939453125</ele>
        <time>2008-02-03T09:23:47Z</time>
      </trkpt>
      <trkpt lat="45.842492580413818" lon="8.794620037078857">
        <ele>477.431884765625</ele>
        <time>2008-02-03T09:23:49Z</time>
      </trkpt>
      <trkpt lat="45.842621326446533" lon="8.794534206390381">
        <ele>478.3931884765625</ele>
        <time>2008-02-03T09:24:02Z</time>
      </trkpt>
      <trkpt lat="45.842792987823486" lon="8.794426918029785">
        <ele>476.9512939453125</ele>
        <time>2008-02-03T09:24:15Z</time>
      </trkpt>
      <trkpt lat="45.843007564544678" lon="8.79431962966919">
        <ele>478.8739013671875</ele>
        <time>2008-02-03T09:24:26Z</time>
      </trkpt>
      <trkpt lat="45.843157768249512" lon="8.794255256652832">
        <ele>477.431884765625</ele>
        <time>2008-02-03T09:24:34Z</time>
      </trkpt>
      <trkpt lat="45.843522548675537" lon="8.793997764587402">
        <ele>476.4705810546875</ele>
        <time>2008-02-03T09:24:59Z</time>
      </trkpt>
      <trkpt lat="45.843758583068848" lon="8.793632984161377">
        <ele>477.9124755859375</ele>
        <time>2008-02-03T09:25:14Z</time>
      </trkpt>
      <trkpt lat="45.843973159790039" lon="8.793396949768066">
        <ele>477.9124755859375</ele>
        <time>2008-02-03T09:25:29Z</time>
      </trkpt>
      <trkpt lat="45.844509601593018" lon="8.792860507965088">
        <ele>478.8739013671875</ele>
        <time>2008-02-03T09:26:13Z</time>
      </trkpt>
      <trkpt lat="45.844466686248779" lon="8.792881965637207">
        <ele>480.31591796875</ele>
        <time>2008-02-03T09:26:23Z</time>
      </trkpt>
      <trkpt lat="45.84444522857666" lon="8.792946338653565">
        <ele>489.4483642578125</ele>
        <time>2008-02-03T09:26:41Z</time>
      </trkpt>
      <trkpt lat="45.844466686248779" lon="8.792967796325684">
        <ele>489.4483642578125</ele>
        <time>2008-02-03T09:26:43Z</time>
      </trkpt>
      <trkpt lat="45.844638347625732" lon="8.793032169342041">
        <ele>493.2935791015625</ele>
        <time>2008-02-03T09:26:57Z</time>
      </trkpt>
      <trkpt lat="45.844852924346924" lon="8.793075084686279">
        <ele>493.2935791015625</ele>
        <time>2008-02-03T09:27:14Z</time>
      </trkpt>
      <trkpt lat="45.845024585723877" lon="8.793032169342041">
        <ele>494.735595703125</ele>
        <time>2008-02-03T09:27:28Z</time>
      </trkpt>
      <trkpt lat="45.845582485198975" lon="8.792924880981445">
        <ele>495.6968994140625</ele>
        <time>2008-02-03T09:28:08Z</time>
      </trkpt>
      <trkpt lat="45.845861434936523" lon="8.792774677276611">
        <ele>495.6968994140625</ele>
        <time>2008-02-03T09:28:22Z</time>
      </trkpt>
      <trkpt lat="45.846076011657715" lon="8.79256010055542">
        <ele>496.6583251953125</ele>
        <time>2008-02-03T09:28:29Z</time>
      </trkpt>
      <trkpt lat="45.846097469329834" lon="8.792409896850586">
        <ele>498.100341796875</ele>
        <time>2008-02-03T09:28:34Z</time>
      </trkpt>
      <trkpt lat="45.84620475769043" lon="8.792152404785156">
        <ele>500.5035400390625</ele>
        <time>2008-02-03T09:29:18Z</time>
      </trkpt>
      <trkpt lat="45.846226215362549" lon="8.792130947113037">
        <ele>500.5035400390625</ele>
        <time>2008-02-03T09:29:20Z</time>
      </trkpt>
      <trkpt lat="45.84669828414917" lon="8.79180908203125">
        <ele>500.984130859375</ele>
        <time>2008-02-03T09:29:58Z</time>
      </trkpt>
      <trkpt lat="45.847105979919434" lon="8.791766166687012">
        <ele>502.90673828125</ele>
        <time>2008-02-03T09:30:23Z</time>
      </trkpt>
      <trkpt lat="45.847342014312744" lon="8.791594505310059">
        <ele>507.2327880859375</ele>
        <time>2008-02-03T09:30:34Z</time>
      </trkpt>
      <trkpt lat="45.847642421722412" lon="8.791294097900391">
        <ele>513.9620361328125</ele>
        <time>2008-02-03T09:30:50Z</time>
      </trkpt>
      <trkpt lat="45.847899913787842" lon="8.791036605834961">
        <ele>517.32666015625</ele>
        <time>2008-02-03T09:31:07Z</time>
      </trkpt>
      <trkpt lat="45.848050117492676" lon="8.790736198425293">
        <ele>518.287841796875</ele>
        <time>2008-02-03T09:31:22Z</time>
      </trkpt>
      <trkpt lat="45.84820032119751" lon="8.790414333343506">
        <ele>525.0172119140625</ele>
        <time>2008-02-03T09:31:39Z</time>
      </trkpt>
      <trkpt lat="45.848243236541748" lon="8.79030704498291">
        <ele>527.9010009765625</ele>
        <time>2008-02-03T09:31:45Z</time>
      </trkpt>
      <trkpt lat="45.848286151885986" lon="8.790049552917481">
        <ele>528.3818359375</ele>
        <time>2008-02-03T09:32:00Z</time>
      </trkpt>
      <trkpt lat="45.848350524902344" lon="8.789749145507813">
        <ele>532.707763671875</ele>
        <time>2008-02-03T09:32:17Z</time>
      </trkpt>
      <trkpt lat="45.848393440246582" lon="8.789448738098145">
        <ele>534.149658203125</ele>
        <time>2008-02-03T09:32:33Z</time>
      </trkpt>
      <trkpt lat="45.84843635559082" lon="8.789212703704834">
        <ele>537.5142822265625</ele>
        <time>2008-02-03T09:32:47Z</time>
      </trkpt>
      <trkpt lat="45.848500728607178" lon="8.788955211639404">
        <ele>538.956298828125</ele>
        <time>2008-02-03T09:33:01Z</time>
      </trkpt>
      <trkpt lat="45.848522186279297" lon="8.788697719573975">
        <ele>538.956298828125</ele>
        <time>2008-02-03T09:33:14Z</time>
      </trkpt>
      <trkpt lat="45.848522186279297" lon="8.788332939147949">
        <ele>538.956298828125</ele>
        <time>2008-02-03T09:33:31Z</time>
      </trkpt>
      <trkpt lat="45.848500728607178" lon="8.787968158721924">
        <ele>542.801513671875</ele>
        <time>2008-02-03T09:33:45Z</time>
      </trkpt>
      <trkpt lat="45.848522186279297" lon="8.787796497344971">
        <ele>544.7242431640625</ele>
        <time>2008-02-03T09:33:55Z</time>
      </trkpt>
      <trkpt lat="45.848650932312012" lon="8.787646293640137">
        <ele>546.6468505859375</ele>
        <time>2008-02-03T09:34:09Z</time>
      </trkpt>
      <trkpt lat="45.848758220672607" lon="8.787453174591065">
        <ele>550.4921875</ele>
        <time>2008-02-03T09:34:25Z</time>
      </trkpt>
      <trkpt lat="45.848844051361084" lon="8.787260055541992">
        <ele>553.856689453125</ele>
        <time>2008-02-03T09:34:42Z</time>
      </trkpt>
      <trkpt lat="45.848865509033203" lon="8.787131309509277">
        <ele>555.298583984375</ele>
        <time>2008-02-03T09:34:54Z</time>
      </trkpt>
      <trkpt lat="45.848908424377441" lon="8.787002563476563">
        <ele>557.221435546875</ele>
        <time>2008-02-03T09:35:07Z</time>
      </trkpt>
      <trkpt lat="45.848972797393799" lon="8.786873817443848">
        <ele>559.14404296875</ele>
        <time>2008-02-03T09:35:21Z</time>
      </trkpt>
      <trkpt lat="45.849015712738037" lon="8.786852359771729">
        <ele>563.950439453125</ele>
        <time>2008-02-03T09:35:28Z</time>
      </trkpt>
      <trkpt lat="45.849015712738037" lon="8.786830902099609">
        <ele>569.23779296875</ele>
        <time>2008-02-03T09:35:44Z</time>
      </trkpt>
      <trkpt lat="45.849058628082275" lon="8.786766529083252">
        <ele>567.315185546875</ele>
        <time>2008-02-03T09:35:56Z</time>
      </trkpt>
      <trkpt lat="45.849123001098633" lon="8.786637783050537">
        <ele>567.315185546875</ele>
        <time>2008-02-03T09:36:10Z</time>
      </trkpt>
      <trkpt lat="45.84918737411499" lon="8.786616325378418">
        <ele>570.198974609375</ele>
        <time>2008-02-03T09:36:18Z</time>
      </trkpt>
      <trkpt lat="45.849273204803467" lon="8.786509037017822">
        <ele>570.6796875</ele>
        <time>2008-02-03T09:36:33Z</time>
      </trkpt>
      <trkpt lat="45.849359035491943" lon="8.786444664001465">
        <ele>573.083251953125</ele>
        <time>2008-02-03T09:36:45Z</time>
      </trkpt>
      <trkpt lat="45.849423408508301" lon="8.786358833312988">
        <ele>577.4091796875</ele>
        <time>2008-02-03T09:36:57Z</time>
      </trkpt>
      <trkpt lat="45.849509239196777" lon="8.786251544952393">
        <ele>577.8896484375</ele>
        <time>2008-02-03T09:37:09Z</time>
      </trkpt>
      <trkpt lat="45.849616527557373" lon="8.786187171936035">
        <ele>580.29296875</ele>
        <time>2008-02-03T09:37:24Z</time>
      </trkpt>
      <trkpt lat="45.849723815917969" lon="8.786101341247559">
        <ele>582.6962890625</ele>
        <time>2008-02-03T09:37:39Z</time>
      </trkpt>
      <trkpt lat="45.849831104278564" lon="8.785972595214844">
        <ele>582.6962890625</ele>
        <time>2008-02-03T09:37:55Z</time>
      </trkpt>
      <trkpt lat="45.849874019622803" lon="8.785929679870606">
        <ele>582.6962890625</ele>
        <time>2008-02-03T09:38:00Z</time>
      </trkpt>
      <trkpt lat="45.849959850311279" lon="8.785865306854248">
        <ele>588.46435546875</ele>
        <time>2008-02-03T09:38:11Z</time>
      </trkpt>
      <trkpt lat="45.850002765655518" lon="8.78582239151001">
        <ele>588.46435546875</ele>
        <time>2008-02-03T09:38:18Z</time>
      </trkpt>
      <trkpt lat="45.850110054016113" lon="8.785693645477295">
        <ele>588.945068359375</ele>
        <time>2008-02-03T09:38:34Z</time>
      </trkpt>
      <trkpt lat="45.850217342376709" lon="8.785586357116699">
        <ele>589.425537109375</ele>
        <time>2008-02-03T09:38:47Z</time>
      </trkpt>
      <trkpt lat="45.850324630737305" lon="8.785371780395508">
        <ele>590.867431640625</ele>
        <time>2008-02-03T09:39:06Z</time>
      </trkpt>
      <trkpt lat="45.8504319190979" lon="8.785243034362793">
        <ele>593.75146484375</ele>
        <time>2008-02-03T09:39:20Z</time>
      </trkpt>
      <trkpt lat="45.850539207458496" lon="8.785243034362793">
        <ele>593.75146484375</ele>
        <time>2008-02-03T09:39:31Z</time>
      </trkpt>
      <trkpt lat="45.850667953491211" lon="8.785243034362793">
        <ele>592.3095703125</ele>
        <time>2008-02-03T09:39:44Z</time>
      </trkpt>
      <trkpt lat="45.850796699523926" lon="8.785264492034912">
        <ele>597.115966796875</ele>
        <time>2008-02-03T09:40:01Z</time>
      </trkpt>
      <trkpt lat="45.850818157196045" lon="8.785264492034912">
        <ele>609.61328125</ele>
        <time>2008-02-03T09:40:13Z</time>
      </trkpt>
      <trkpt lat="45.850839614868164" lon="8.785285949707031">
        <ele>600.961181640625</ele>
        <time>2008-02-03T09:41:56Z</time>
      </trkpt>
      <trkpt lat="45.850903987884521" lon="8.785264492034912">
        <ele>602.8837890625</ele>
        <time>2008-02-03T09:42:06Z</time>
      </trkpt>
      <trkpt lat="45.851032733917236" lon="8.785264492034912">
        <ele>602.8837890625</ele>
        <time>2008-02-03T09:42:19Z</time>
      </trkpt>
      <trkpt lat="45.851118564605713" lon="8.78530740737915">
        <ele>603.364501953125</ele>
        <time>2008-02-03T09:42:26Z</time>
      </trkpt>
      <trkpt lat="45.851140022277832" lon="8.785178661346436">
        <ele>603.84521484375</ele>
        <time>2008-02-03T09:42:39Z</time>
      </trkpt>
      <trkpt lat="45.851140022277832" lon="8.785135746002197">
        <ele>603.364501953125</ele>
        <time>2008-02-03T09:42:41Z</time>
      </trkpt>
      <trkpt lat="45.851097106933594" lon="8.784706592559815">
        <ele>602.8837890625</ele>
        <time>2008-02-03T09:43:01Z</time>
      </trkpt>
      <trkpt lat="45.851225852966309" lon="8.784406185150147">
        <ele>602.403076171875</ele>
        <time>2008-02-03T09:43:16Z</time>
      </trkpt>
      <trkpt lat="45.851418972015381" lon="8.784127235412598">
        <ele>604.326171875</ele>
        <time>2008-02-03T09:43:30Z</time>
      </trkpt>
      <trkpt lat="45.851483345031738" lon="8.783998489379883">
        <ele>604.326171875</ele>
        <time>2008-02-03T09:43:36Z</time>
      </trkpt>
      <trkpt lat="45.851483345031738" lon="8.783676624298096">
        <ele>603.364501953125</ele>
        <time>2008-02-03T09:43:48Z</time>
      </trkpt>
      <trkpt lat="45.851612091064453" lon="8.783097267150879">
        <ele>603.84521484375</ele>
        <time>2008-02-03T09:44:06Z</time>
      </trkpt>
      <trkpt lat="45.851762294769287" lon="8.782024383544922">
        <ele>603.84521484375</ele>
        <time>2008-02-03T09:44:36Z</time>
      </trkpt>
      <trkpt lat="45.851762294769287" lon="8.781015872955322">
        <ele>603.84521484375</ele>
        <time>2008-02-03T09:44:47Z</time>
      </trkpt>
      <trkpt lat="45.851826667785645" lon="8.780844211578369">
        <ele>606.729248046875</ele>
        <time>2008-02-03T09:44:59Z</time>
      </trkpt>
      <trkpt lat="45.851912498474121" lon="8.78056526184082">
        <ele>608.65185546875</ele>
        <time>2008-02-03T09:45:15Z</time>
      </trkpt>
      <trkpt lat="45.852041244506836" lon="8.780350685119629">
        <ele>608.17138671875</ele>
        <time>2008-02-03T09:45:27Z</time>
      </trkpt>
      <trkpt lat="45.852127075195313" lon="8.780264854431152">
        <ele>607.690673828125</ele>
        <time>2008-02-03T09:45:33Z</time>
      </trkpt>
      <trkpt lat="45.852663516998291" lon="8.780243396759033">
        <ele>607.690673828125</ele>
        <time>2008-02-03T09:45:55Z</time>
      </trkpt>
      <trkpt lat="45.853028297424316" lon="8.779985904693604">
        <ele>607.690673828125</ele>
        <time>2008-02-03T09:46:08Z</time>
      </trkpt>
      <trkpt lat="45.853350162506104" lon="8.779213428497315">
        <ele>607.2099609375</ele>
        <time>2008-02-03T09:46:13Z</time>
      </trkpt>
      <trkpt lat="45.853350162506104" lon="8.779127597808838">
        <ele>606.24853515625</ele>
        <time>2008-02-03T09:46:17Z</time>
      </trkpt>
      <trkpt lat="45.853500366210938" lon="8.779170513153076">
        <ele>607.2099609375</ele>
        <time>2008-02-03T09:46:23Z</time>
      </trkpt>
      <trkpt lat="45.853843688964844" lon="8.779406547546387">
        <ele>607.2099609375</ele>
        <time>2008-02-03T09:46:36Z</time>
      </trkpt>
      <trkpt lat="45.853950977325439" lon="8.779213428497315">
        <ele>605.76806640625</ele>
        <time>2008-02-03T09:46:44Z</time>
      </trkpt>
      <trkpt lat="45.853972434997559" lon="8.779020309448242">
        <ele>606.729248046875</ele>
        <time>2008-02-03T09:46:51Z</time>
      </trkpt>
      <trkpt lat="45.853757858276367" lon="8.778848648071289">
        <ele>606.729248046875</ele>
        <time>2008-02-03T09:47:02Z</time>
      </trkpt>
      <trkpt lat="45.853242874145508" lon="8.778548240661621">
        <ele>606.729248046875</ele>
        <time>2008-02-03T09:47:16Z</time>
      </trkpt>
      <trkpt lat="45.853114128112793" lon="8.778483867645264">
        <ele>607.690673828125</ele>
        <time>2008-02-03T09:47:19Z</time>
      </trkpt>
      <trkpt lat="45.852406024932861" lon="8.778204917907715">
        <ele>608.65185546875</ele>
        <time>2008-02-03T09:47:24Z</time>
      </trkpt>
      <trkpt lat="45.852212905883789" lon="8.77784013748169">
        <ele>609.132568359375</ele>
        <time>2008-02-03T09:47:29Z</time>
      </trkpt>
      <trkpt lat="45.852127075195313" lon="8.778076171875">
        <ele>609.61328125</ele>
        <time>2008-02-03T09:47:31Z</time>
      </trkpt>
      <trkpt lat="45.852084159851074" lon="8.77781867980957">
        <ele>609.61328125</ele>
        <time>2008-02-03T09:47:39Z</time>
      </trkpt>
      <trkpt lat="45.852019786834717" lon="8.777668476104736">
        <ele>611.535888671875</ele>
        <time>2008-02-03T09:47:46Z</time>
      </trkpt>
      <trkpt lat="45.851998329162598" lon="8.777668476104736">
        <ele>612.0166015625</ele>
        <time>2008-02-03T09:47:48Z</time>
      </trkpt>
      <trkpt lat="45.851912498474121" lon="8.777754306793213">
        <ele>612.0166015625</ele>
        <time>2008-02-03T09:47:51Z</time>
      </trkpt>
      <trkpt lat="45.851826667785645" lon="8.77784013748169">
        <ele>612.0166015625</ele>
        <time>2008-02-03T09:47:53Z</time>
      </trkpt>
      <trkpt lat="45.851483345031738" lon="8.778033256530762">
        <ele>612.0166015625</ele>
        <time>2008-02-03T09:48:00Z</time>
      </trkpt>
      <trkpt lat="45.85118293762207" lon="8.778054714202881">
        <ele>610.574462890625</ele>
        <time>2008-02-03T09:48:06Z</time>
      </trkpt>
      <trkpt lat="45.851011276245117" lon="8.777947425842285">
        <ele>609.61328125</ele>
        <time>2008-02-03T09:48:13Z</time>
      </trkpt>
      <trkpt lat="45.850818157196045" lon="8.777518272399902">
        <ele>609.61328125</ele>
        <time>2008-02-03T09:48:27Z</time>
      </trkpt>
      <trkpt lat="45.850818157196045" lon="8.777239322662354">
        <ele>609.61328125</ele>
        <time>2008-02-03T09:48:36Z</time>
      </trkpt>
      <trkpt lat="45.850775241851807" lon="8.777110576629639">
        <ele>609.132568359375</ele>
        <time>2008-02-03T09:48:42Z</time>
      </trkpt>
      <trkpt lat="45.850646495819092" lon="8.777046203613281">
        <ele>609.132568359375</ele>
        <time>2008-02-03T09:48:46Z</time>
      </trkpt>
      <trkpt lat="45.850367546081543" lon="8.77683162689209">
        <ele>608.65185546875</ele>
        <time>2008-02-03T09:48:52Z</time>
      </trkpt>
      <trkpt lat="45.850260257720947" lon="8.776681423187256">
        <ele>608.65185546875</ele>
        <time>2008-02-03T09:48:56Z</time>
      </trkpt>
      <trkpt lat="45.850217342376709" lon="8.776659965515137">
        <ele>610.09375</ele>
        <time>2008-02-03T09:49:04Z</time>
      </trkpt>
      <trkpt lat="45.849981307983398" lon="8.776724338531494">
        <ele>607.2099609375</ele>
        <time>2008-02-03T09:49:14Z</time>
      </trkpt>
      <trkpt lat="45.849659442901611" lon="8.776895999908447">
        <ele>607.2099609375</ele>
        <time>2008-02-03T09:49:25Z</time>
      </trkpt>
      <trkpt lat="45.849530696868896" lon="8.777174949645996">
        <ele>606.24853515625</ele>
        <time>2008-02-03T09:49:34Z</time>
      </trkpt>
      <trkpt lat="45.849509239196777" lon="8.777539730072022">
        <ele>605.76806640625</ele>
        <time>2008-02-03T09:49:45Z</time>
      </trkpt>
      <trkpt lat="45.849487781524658" lon="8.777883052825928">
        <ele>604.806640625</ele>
        <time>2008-02-03T09:49:57Z</time>
      </trkpt>
      <trkpt lat="45.849337577819824" lon="8.778097629547119">
        <ele>603.364501953125</ele>
        <time>2008-02-03T09:50:10Z</time>
      </trkpt>
      <trkpt lat="45.849273204803467" lon="8.778162002563477">
        <ele>596.635498046875</ele>
        <time>2008-02-03T09:50:20Z</time>
      </trkpt>
      <trkpt lat="45.84918737411499" lon="8.778162002563477">
        <ele>568.757080078125</ele>
        <time>2008-02-03T09:51:41Z</time>
      </trkpt>
      <trkpt lat="45.848972797393799" lon="8.778033256530762">
        <ele>570.198974609375</ele>
        <time>2008-02-03T09:51:52Z</time>
      </trkpt>
      <trkpt lat="45.848650932312012" lon="8.777668476104736">
        <ele>564.911865234375</ele>
        <time>2008-02-03T09:52:02Z</time>
      </trkpt>
      <trkpt lat="45.848586559295654" lon="8.777604103088379">
        <ele>563.469970703125</ele>
        <time>2008-02-03T09:52:04Z</time>
      </trkpt>
      <trkpt lat="45.848350524902344" lon="8.777625560760498">
        <ele>561.066650390625</ele>
        <time>2008-02-03T09:52:09Z</time>
      </trkpt>
      <trkpt lat="45.848286151885986" lon="8.777647018432617">
        <ele>560.105224609375</ele>
        <time>2008-02-03T09:52:11Z</time>
      </trkpt>
      <trkpt lat="45.848178863525391" lon="8.777797222137451">
        <ele>558.663330078125</ele>
        <time>2008-02-03T09:52:15Z</time>
      </trkpt>
      <trkpt lat="45.848050117492676" lon="8.777968883514404">
        <ele>556.260009765625</ele>
        <time>2008-02-03T09:52:21Z</time>
      </trkpt>
      <trkpt lat="45.848028659820557" lon="8.778011798858643">
        <ele>561.066650390625</ele>
        <time>2008-02-03T09:52:28Z</time>
      </trkpt>
      <trkpt lat="45.84794282913208" lon="8.778119087219238">
        <ele>559.624755859375</ele>
        <time>2008-02-03T09:52:34Z</time>
      </trkpt>
      <trkpt lat="45.847814083099365" lon="8.778269290924072">
        <ele>559.14404296875</ele>
        <time>2008-02-03T09:52:39Z</time>
      </trkpt>
      <trkpt lat="45.847492218017578" lon="8.778655529022217">
        <ele>557.7021484375</ele>
        <time>2008-02-03T09:52:48Z</time>
      </trkpt>
      <trkpt lat="45.847299098968506" lon="8.778870105743408">
        <ele>555.298583984375</ele>
        <time>2008-02-03T09:52:53Z</time>
      </trkpt>
      <trkpt lat="45.846590995788574" lon="8.780157566070557">
        <ele>553.3759765625</ele>
        <time>2008-02-03T09:53:17Z</time>
      </trkpt>
      <trkpt lat="45.84620475769043" lon="8.780715465545654">
        <ele>552.41455078125</ele>
        <time>2008-02-03T09:53:28Z</time>
      </trkpt>
      <trkpt lat="45.846076011657715" lon="8.780715465545654">
        <ele>548.0888671875</ele>
        <time>2008-02-03T09:53:38Z</time>
      </trkpt>
      <trkpt lat="45.846076011657715" lon="8.780672550201416">
        <ele>547.608154296875</ele>
        <time>2008-02-03T09:53:40Z</time>
      </trkpt>
      <trkpt lat="45.846161842346191" lon="8.78032922744751">
        <ele>546.6468505859375</ele>
        <time>2008-02-03T09:53:51Z</time>
      </trkpt>
      <trkpt lat="45.846161842346191" lon="8.780307769775391">
        <ele>546.6468505859375</ele>
        <time>2008-02-03T09:53:52Z</time>
      </trkpt>
      <trkpt lat="45.846118927001953" lon="8.780221939086914">
        <ele>546.6468505859375</ele>
        <time>2008-02-03T09:53:54Z</time>
      </trkpt>
      <trkpt lat="45.845603942871094" lon="8.779428005218506">
        <ele>545.685546875</ele>
        <time>2008-02-03T09:54:03Z</time>
      </trkpt>
      <trkpt lat="45.845389366149902" lon="8.77856969833374">
        <ele>546.166259765625</ele>
        <time>2008-02-03T09:54:10Z</time>
      </trkpt>
      <trkpt lat="45.845410823822021" lon="8.778591156005859">
        <ele>546.166259765625</ele>
        <time>2008-02-03T09:54:13Z</time>
      </trkpt>
      <trkpt lat="45.845432281494141" lon="8.778119087219238">
        <ele>542.3209228515625</ele>
        <time>2008-02-03T09:54:26Z</time>
      </trkpt>
      <trkpt lat="45.845475196838379" lon="8.777711391448975">
        <ele>539.9176025390625</ele>
        <time>2008-02-03T09:54:35Z</time>
      </trkpt>
      <trkpt lat="45.845410823822021" lon="8.777174949645996">
        <ele>539.9176025390625</ele>
        <time>2008-02-03T09:54:45Z</time>
      </trkpt>
      <trkpt lat="45.845432281494141" lon="8.776638507843018">
        <ele>540.3983154296875</ele>
        <time>2008-02-03T09:54:54Z</time>
      </trkpt>
      <trkpt lat="45.845582485198975" lon="8.775393962860107">
        <ele>537.9949951171875</ele>
        <time>2008-02-03T09:55:13Z</time>
      </trkpt>
      <trkpt lat="45.845625400543213" lon="8.774535655975342">
        <ele>537.9949951171875</ele>
        <time>2008-02-03T09:55:26Z</time>
      </trkpt>
      <trkpt lat="45.845561027526855" lon="8.774492740631104">
        <ele>537.9949951171875</ele>
        <time>2008-02-03T09:55:28Z</time>
      </trkpt>
      <trkpt lat="45.845367908477783" lon="8.774471282958984">
        <ele>536.0723876953125</ele>
        <time>2008-02-03T09:55:31Z</time>
      </trkpt>
      <trkpt lat="45.84470272064209" lon="8.774986267089844">
        <ele>536.0723876953125</ele>
        <time>2008-02-03T09:55:33Z</time>
      </trkpt>
      <trkpt lat="45.844509601593018" lon="8.774857521057129">
        <ele>534.63037109375</ele>
        <time>2008-02-03T09:55:38Z</time>
      </trkpt>
      <trkpt lat="45.844380855560303" lon="8.774492740631104">
        <ele>533.1883544921875</ele>
        <time>2008-02-03T09:55:44Z</time>
      </trkpt>
      <trkpt lat="45.844316482543945" lon="8.77432107925415">
        <ele>532.22705078125</ele>
        <time>2008-02-03T09:55:47Z</time>
      </trkpt>
      <trkpt lat="45.844295024871826" lon="8.773891925811768">
        <ele>531.746337890625</ele>
        <time>2008-02-03T09:55:55Z</time>
      </trkpt>
      <trkpt lat="45.844295024871826" lon="8.773634433746338">
        <ele>531.2657470703125</ele>
        <time>2008-02-03T09:55:57Z</time>
      </trkpt>
      <trkpt lat="45.84444522857666" lon="8.773055076599121">
        <ele>531.2657470703125</ele>
        <time>2008-02-03T09:56:05Z</time>
      </trkpt>
      <trkpt lat="45.844509601593018" lon="8.772797584533691">
        <ele>531.2657470703125</ele>
        <time>2008-02-03T09:56:09Z</time>
      </trkpt>
      <trkpt lat="45.844466686248779" lon="8.772518634796143">
        <ele>530.304443359375</ele>
        <time>2008-02-03T09:56:14Z</time>
      </trkpt>
      <trkpt lat="45.844466686248779" lon="8.772261142730713">
        <ele>530.304443359375</ele>
        <time>2008-02-03T09:56:20Z</time>
      </trkpt>
      <trkpt lat="45.844509601593018" lon="8.772110939025879">
        <ele>530.304443359375</ele>
        <time>2008-02-03T09:56:22Z</time>
      </trkpt>
      <trkpt lat="45.844552516937256" lon="8.771982192993164">
        <ele>529.3431396484375</ele>
        <time>2008-02-03T09:56:25Z</time>
      </trkpt>
      <trkpt lat="45.844573974609375" lon="8.771853446960449">
        <ele>525.9783935546875</ele>
        <time>2008-02-03T09:56:30Z</time>
      </trkpt>
      <trkpt lat="45.844788551330566" lon="8.771638870239258">
        <ele>525.497802734375</ele>
        <time>2008-02-03T09:56:40Z</time>
      </trkpt>
      <trkpt lat="45.845024585723877" lon="8.771209716796875">
        <ele>521.1719970703125</ele>
        <time>2008-02-03T09:56:50Z</time>
      </trkpt>
      <trkpt lat="45.845239162445068" lon="8.770802021026611">
        <ele>520.6912841796875</ele>
        <time>2008-02-03T09:57:01Z</time>
      </trkpt>
      <trkpt lat="45.845389366149902" lon="8.77058744430542">
        <ele>519.249267578125</ele>
        <time>2008-02-03T09:57:12Z</time>
      </trkpt>
      <trkpt lat="45.845646858215332" lon="8.770308494567871">
        <ele>519.249267578125</ele>
        <time>2008-02-03T09:57:27Z</time>
      </trkpt>
      <trkpt lat="45.845882892608643" lon="8.770158290863037">
        <ele>517.8072509765625</ele>
        <time>2008-02-03T09:57:40Z</time>
      </trkpt>
      <trkpt lat="45.846054553985596" lon="8.770072460174561">
        <ele>516.365234375</ele>
        <time>2008-02-03T09:57:51Z</time>
      </trkpt>
      <trkpt lat="45.846290588378906" lon="8.769943714141846">
        <ele>516.365234375</ele>
        <time>2008-02-03T09:58:07Z</time>
      </trkpt>
      <trkpt lat="45.846462249755859" lon="8.769729137420654">
        <ele>516.365234375</ele>
        <time>2008-02-03T09:58:20Z</time>
      </trkpt>
      <trkpt lat="45.846526622772217" lon="8.769385814666748">
        <ele>517.32666015625</ele>
        <time>2008-02-03T09:58:32Z</time>
      </trkpt>
      <trkpt lat="45.846483707427979" lon="8.768978118896484">
        <ele>517.32666015625</ele>
        <time>2008-02-03T09:58:42Z</time>
      </trkpt>
      <trkpt lat="45.846569538116455" lon="8.768699169158936">
        <ele>514.92333984375</ele>
        <time>2008-02-03T09:58:52Z</time>
      </trkpt>
      <trkpt lat="45.846719741821289" lon="8.768377304077148">
        <ele>515.404052734375</ele>
        <time>2008-02-03T09:59:00Z</time>
      </trkpt>
      <trkpt lat="45.847084522247314" lon="8.767669200897217">
        <ele>514.92333984375</ele>
        <time>2008-02-03T09:59:16Z</time>
      </trkpt>
      <trkpt lat="45.847320556640625" lon="8.766810894012451">
        <ele>512.52001953125</ele>
        <time>2008-02-03T09:59:31Z</time>
      </trkpt>
      <trkpt lat="45.847363471984863" lon="8.766617774963379">
        <ele>512.0394287109375</ele>
        <time>2008-02-03T09:59:34Z</time>
      </trkpt>
      <trkpt lat="45.847406387329102" lon="8.76610279083252">
        <ele>510.11669921875</ele>
        <time>2008-02-03T09:59:43Z</time>
      </trkpt>
      <trkpt lat="45.847320556640625" lon="8.76558780670166">
        <ele>511.5587158203125</ele>
        <time>2008-02-03T09:59:53Z</time>
      </trkpt>
      <trkpt lat="45.847277641296387" lon="8.765265941619873">
        <ele>512.52001953125</ele>
        <time>2008-02-03T10:00:01Z</time>
      </trkpt>
      <trkpt lat="45.847277641296387" lon="8.765244483947754">
        <ele>512.52001953125</ele>
        <time>2008-02-03T10:00:02Z</time>
      </trkpt>
      <trkpt lat="45.847277641296387" lon="8.765265941619873">
        <ele>513.000732421875</ele>
        <time>2008-02-03T10:00:06Z</time>
      </trkpt>
      <trkpt lat="45.847299098968506" lon="8.765158653259277">
        <ele>511.0780029296875</ele>
        <time>2008-02-03T10:00:10Z</time>
      </trkpt>
      <trkpt lat="45.847342014312744" lon="8.764858245849609">
        <ele>509.6361083984375</ele>
        <time>2008-02-03T10:00:21Z</time>
      </trkpt>
      <trkpt lat="45.847427845001221" lon="8.764579296112061">
        <ele>511.5587158203125</ele>
        <time>2008-02-03T10:00:31Z</time>
      </trkpt>
      <trkpt lat="45.847492218017578" lon="8.764257431030273">
        <ele>511.5587158203125</ele>
        <time>2008-02-03T10:00:42Z</time>
      </trkpt>
      <trkpt lat="45.847620964050293" lon="8.763935565948486">
        <ele>511.5587158203125</ele>
        <time>2008-02-03T10:00:53Z</time>
      </trkpt>
      <trkpt lat="45.847792625427246" lon="8.763613700866699">
        <ele>511.5587158203125</ele>
        <time>2008-02-03T10:01:07Z</time>
      </trkpt>
      <trkpt lat="45.847921371459961" lon="8.763227462768555">
        <ele>512.52001953125</ele>
        <time>2008-02-03T10:01:19Z</time>
      </trkpt>
      <trkpt lat="45.84820032119751" lon="8.762540817260742">
        <ele>512.52001953125</ele>
        <time>2008-02-03T10:01:41Z</time>
      </trkpt>
      <trkpt lat="45.848500728607178" lon="8.762197494506836">
        <ele>513.000732421875</ele>
        <time>2008-02-03T10:01:58Z</time>
      </trkpt>
      <trkpt lat="45.848629474639893" lon="8.761811256408691">
        <ele>513.000732421875</ele>
        <time>2008-02-03T10:02:13Z</time>
      </trkpt>
      <trkpt lat="45.848715305328369" lon="8.761425018310547">
        <ele>516.845947265625</ele>
        <time>2008-02-03T10:02:26Z</time>
      </trkpt>
      <trkpt lat="45.848865509033203" lon="8.761038780212402">
        <ele>517.32666015625</ele>
        <time>2008-02-03T10:02:41Z</time>
      </trkpt>
      <trkpt lat="45.84895133972168" lon="8.760781288146973">
        <ele>521.1719970703125</ele>
        <time>2008-02-03T10:02:51Z</time>
      </trkpt>
      <trkpt lat="45.849058628082275" lon="8.760330677032471">
        <ele>521.652587890625</ele>
        <time>2008-02-03T10:03:09Z</time>
      </trkpt>
      <trkpt lat="45.84918737411499" lon="8.759794235229492">
        <ele>521.652587890625</ele>
        <time>2008-02-03T10:03:28Z</time>
      </trkpt>
      <trkpt lat="45.849165916442871" lon="8.759558200836182">
        <ele>520.2105712890625</ele>
        <time>2008-02-03T10:03:35Z</time>
      </trkpt>
      <trkpt lat="45.849037170410156" lon="8.758978843688965">
        <ele>519.7298583984375</ele>
        <time>2008-02-03T10:03:51Z</time>
      </trkpt>
      <trkpt lat="45.849058628082275" lon="8.758549690246582">
        <ele>519.7298583984375</ele>
        <time>2008-02-03T10:04:08Z</time>
      </trkpt>
      <trkpt lat="45.849144458770752" lon="8.758227825164795">
        <ele>519.7298583984375</ele>
        <time>2008-02-03T10:04:23Z</time>
      </trkpt>
      <trkpt lat="45.849208831787109" lon="8.757798671722412">
        <ele>519.7298583984375</ele>
        <time>2008-02-03T10:04:39Z</time>
      </trkpt>
      <trkpt lat="45.849273204803467" lon="8.757326602935791">
        <ele>519.7298583984375</ele>
        <time>2008-02-03T10:04:54Z</time>
      </trkpt>
      <trkpt lat="45.849487781524658" lon="8.756511211395264">
        <ele>522.1331787109375</ele>
        <time>2008-02-03T10:05:09Z</time>
      </trkpt>
      <trkpt lat="45.849573612213135" lon="8.756103515625">
        <ele>526.4591064453125</ele>
        <time>2008-02-03T10:05:18Z</time>
      </trkpt>
      <trkpt lat="45.849659442901611" lon="8.755674362182617">
        <ele>526.4591064453125</ele>
        <time>2008-02-03T10:05:30Z</time>
      </trkpt>
      <trkpt lat="45.849788188934326" lon="8.755309581756592">
        <ele>526.9398193359375</ele>
        <time>2008-02-03T10:05:43Z</time>
      </trkpt>
      <trkpt lat="45.849959850311279" lon="8.754923343658447">
        <ele>530.304443359375</ele>
        <time>2008-02-03T10:05:59Z</time>
      </trkpt>
      <trkpt lat="45.849981307983398" lon="8.75485897064209">
        <ele>536.5531005859375</ele>
        <time>2008-02-03T10:06:07Z</time>
      </trkpt>
      <trkpt lat="45.850002765655518" lon="8.754794597625732">
        <ele>537.03369140625</ele>
        <time>2008-02-03T10:06:14Z</time>
      </trkpt>
      <trkpt lat="45.850002765655518" lon="8.754558563232422">
        <ele>551.93408203125</ele>
        <time>2008-02-03T10:07:01Z</time>
      </trkpt>
      <trkpt lat="45.849916934967041" lon="8.754451274871826">
        <ele>547.608154296875</ele>
        <time>2008-02-03T10:09:38Z</time>
      </trkpt>
      <trkpt lat="45.849959850311279" lon="8.754172325134277">
        <ele>547.608154296875</ele>
        <time>2008-02-03T10:09:48Z</time>
      </trkpt>
      <trkpt lat="45.850067138671875" lon="8.753635883331299">
        <ele>549.050048828125</ele>
        <time>2008-02-03T10:10:03Z</time>
      </trkpt>
      <trkpt lat="45.85019588470459" lon="8.753442764282227">
        <ele>548.0888671875</ele>
        <time>2008-02-03T10:10:10Z</time>
      </trkpt>
      <trkpt lat="45.850238800048828" lon="8.753399848937988">
        <ele>548.0888671875</ele>
        <time>2008-02-03T10:10:12Z</time>
      </trkpt>
      <trkpt lat="45.850346088409424" lon="8.753142356872559">
        <ele>547.608154296875</ele>
        <time>2008-02-03T10:10:18Z</time>
      </trkpt>
      <trkpt lat="45.850710868835449" lon="8.752627372741699">
        <ele>546.166259765625</ele>
        <time>2008-02-03T10:10:33Z</time>
      </trkpt>
      <trkpt lat="45.850882530212402" lon="8.75236988067627">
        <ele>545.685546875</ele>
        <time>2008-02-03T10:10:41Z</time>
      </trkpt>
      <trkpt lat="45.851483345031738" lon="8.752005100250244">
        <ele>545.685546875</ele>
        <time>2008-02-03T10:10:59Z</time>
      </trkpt>
      <trkpt lat="45.851762294769287" lon="8.751811981201172">
        <ele>545.685546875</ele>
        <time>2008-02-03T10:11:07Z</time>
      </trkpt>
      <trkpt lat="45.85169792175293" lon="8.751683235168457">
        <ele>545.685546875</ele>
        <time>2008-02-03T10:11:11Z</time>
      </trkpt>
      <trkpt lat="45.851483345031738" lon="8.751704692840576">
        <ele>545.685546875</ele>
        <time>2008-02-03T10:11:16Z</time>
      </trkpt>
      <trkpt lat="45.851311683654785" lon="8.751511573791504">
        <ele>545.204833984375</ele>
        <time>2008-02-03T10:11:22Z</time>
      </trkpt>
      <trkpt lat="45.851118564605713" lon="8.751382827758789">
        <ele>541.8402099609375</ele>
        <time>2008-02-03T10:11:28Z</time>
      </trkpt>
      <trkpt lat="45.850796699523926" lon="8.751060962677002">
        <ele>538.956298828125</ele>
        <time>2008-02-03T10:11:41Z</time>
      </trkpt>
      <trkpt lat="45.850775241851807" lon="8.750846385955811">
        <ele>539.9176025390625</ele>
        <time>2008-02-03T10:11:48Z</time>
      </trkpt>
      <trkpt lat="45.850839614868164" lon="8.750545978546143">
        <ele>543.7628173828125</ele>
        <time>2008-02-03T10:11:56Z</time>
      </trkpt>
      <trkpt lat="45.850989818572998" lon="8.750309944152832">
        <ele>545.685546875</ele>
        <time>2008-02-03T10:12:06Z</time>
      </trkpt>
      <trkpt lat="45.851118564605713" lon="8.749902248382568">
        <ele>547.608154296875</ele>
        <time>2008-02-03T10:12:20Z</time>
      </trkpt>
      <trkpt lat="45.851225852966309" lon="8.749580383300781">
        <ele>549.53076171875</ele>
        <time>2008-02-03T10:12:30Z</time>
      </trkpt>
      <trkpt lat="45.851376056671143" lon="8.749129772186279">
        <ele>550.97265625</ele>
        <time>2008-02-03T10:12:43Z</time>
      </trkpt>
      <trkpt lat="45.851526260375977" lon="8.748700618743897">
        <ele>550.97265625</ele>
        <time>2008-02-03T10:12:55Z</time>
      </trkpt>
      <trkpt lat="45.851655006408691" lon="8.748464584350586">
        <ele>550.97265625</ele>
        <time>2008-02-03T10:13:04Z</time>
      </trkpt>
      <trkpt lat="45.851740837097168" lon="8.748056888580322">
        <ele>550.011474609375</ele>
        <time>2008-02-03T10:13:15Z</time>
      </trkpt>
      <trkpt lat="45.851762294769287" lon="8.74760627746582">
        <ele>551.93408203125</ele>
        <time>2008-02-03T10:13:27Z</time>
      </trkpt>
      <trkpt lat="45.851848125457764" lon="8.747241497039795">
        <ele>551.93408203125</ele>
        <time>2008-02-03T10:13:38Z</time>
      </trkpt>
      <trkpt lat="45.85193395614624" lon="8.746812343597412">
        <ele>553.856689453125</ele>
        <time>2008-02-03T10:13:50Z</time>
      </trkpt>
      <trkpt lat="45.852041244506836" lon="8.74636173248291">
        <ele>554.81787109375</ele>
        <time>2008-02-03T10:14:00Z</time>
      </trkpt>
      <trkpt lat="45.852062702178955" lon="8.745954036712647">
        <ele>555.298583984375</ele>
        <time>2008-02-03T10:14:09Z</time>
      </trkpt>
      <trkpt lat="45.85219144821167" lon="8.745524883270264">
        <ele>554.81787109375</ele>
        <time>2008-02-03T10:14:22Z</time>
      </trkpt>
      <trkpt lat="45.852127075195313" lon="8.745224475860596">
        <ele>556.260009765625</ele>
        <time>2008-02-03T10:14:31Z</time>
      </trkpt>
      <trkpt lat="45.852169990539551" lon="8.744988441467285">
        <ele>558.182861328125</ele>
        <time>2008-02-03T10:14:39Z</time>
      </trkpt>
      <trkpt lat="45.852406024932861" lon="8.744709491729736">
        <ele>559.14404296875</ele>
        <time>2008-02-03T10:14:54Z</time>
      </trkpt>
      <trkpt lat="45.852534770965576" lon="8.744516372680664">
        <ele>562.028076171875</ele>
        <time>2008-02-03T10:15:05Z</time>
      </trkpt>
      <trkpt lat="45.852642059326172" lon="8.744301795959473">
        <ele>559.14404296875</ele>
        <time>2008-02-03T10:15:15Z</time>
      </trkpt>
      <trkpt lat="45.852770805358887" lon="8.744065761566162">
        <ele>559.624755859375</ele>
        <time>2008-02-03T10:15:27Z</time>
      </trkpt>
      <trkpt lat="45.852921009063721" lon="8.743958473205566">
        <ele>561.54736328125</ele>
        <time>2008-02-03T10:15:38Z</time>
      </trkpt>
      <trkpt lat="45.853049755096436" lon="8.743700981140137">
        <ele>563.469970703125</ele>
        <time>2008-02-03T10:15:50Z</time>
      </trkpt>
      <trkpt lat="45.853135585784912" lon="8.743464946746826">
        <ele>566.353759765625</ele>
        <time>2008-02-03T10:15:59Z</time>
      </trkpt>
      <trkpt lat="45.853221416473389" lon="8.743143081665039">
        <ele>568.2763671875</ele>
        <time>2008-02-03T10:16:10Z</time>
      </trkpt>
      <trkpt lat="45.85343599319458" lon="8.742713928222656">
        <ele>567.795654296875</ele>
        <time>2008-02-03T10:16:26Z</time>
      </trkpt>
      <trkpt lat="45.853607654571533" lon="8.742284774780273">
        <ele>568.2763671875</ele>
        <time>2008-02-03T10:16:38Z</time>
      </trkpt>
      <trkpt lat="45.853993892669678" lon="8.741576671600342">
        <ele>570.198974609375</ele>
        <time>2008-02-03T10:16:59Z</time>
      </trkpt>
      <trkpt lat="45.85418701171875" lon="8.74112606048584">
        <ele>572.6025390625</ele>
        <time>2008-02-03T10:17:12Z</time>
      </trkpt>
      <trkpt lat="45.854337215423584" lon="8.740739822387695">
        <ele>574.04443359375</ele>
        <time>2008-02-03T10:17:22Z</time>
      </trkpt>
      <trkpt lat="45.854659080505371" lon="8.739945888519287">
        <ele>574.525146484375</ele>
        <time>2008-02-03T10:17:42Z</time>
      </trkpt>
      <trkpt lat="45.854723453521729" lon="8.739559650421143">
        <ele>574.525146484375</ele>
        <time>2008-02-03T10:17:51Z</time>
      </trkpt>
      <trkpt lat="45.854637622833252" lon="8.739280700683594">
        <ele>574.525146484375</ele>
        <time>2008-02-03T10:17:59Z</time>
      </trkpt>
      <trkpt lat="45.85444450378418" lon="8.739109039306641">
        <ele>575.005859375</ele>
        <time>2008-02-03T10:18:09Z</time>
      </trkpt>
      <trkpt lat="45.854272842407227" lon="8.738894462585449">
        <ele>573.56396484375</ele>
        <time>2008-02-03T10:18:20Z</time>
      </trkpt>
      <trkpt lat="45.854015350341797" lon="8.738679885864258">
        <ele>572.6025390625</ele>
        <time>2008-02-03T10:18:29Z</time>
      </trkpt>
      <trkpt lat="45.853993892669678" lon="8.73863697052002">
        <ele>572.6025390625</ele>
        <time>2008-02-03T10:18:30Z</time>
      </trkpt>
      <trkpt lat="45.854015350341797" lon="8.738250732421875">
        <ele>572.6025390625</ele>
        <time>2008-02-03T10:18:39Z</time>
      </trkpt>
      <trkpt lat="45.85418701171875" lon="8.737864494323731">
        <ele>572.6025390625</ele>
        <time>2008-02-03T10:18:49Z</time>
      </trkpt>
      <trkpt lat="45.854337215423584" lon="8.737542629241943">
        <ele>573.083251953125</ele>
        <time>2008-02-03T10:18:58Z</time>
      </trkpt>
      <trkpt lat="45.854380130767822" lon="8.737113475799561">
        <ele>573.083251953125</ele>
        <time>2008-02-03T10:19:07Z</time>
      </trkpt>
      <trkpt lat="45.85444450378418" lon="8.736684322357178">
        <ele>573.56396484375</ele>
        <time>2008-02-03T10:19:17Z</time>
      </trkpt>
      <trkpt lat="45.854465961456299" lon="8.736577033996582">
        <ele>573.083251953125</ele>
        <time>2008-02-03T10:19:20Z</time>
      </trkpt>
      <trkpt lat="45.854423046112061" lon="8.736469745635986">
        <ele>573.083251953125</ele>
        <time>2008-02-03T10:19:23Z</time>
      </trkpt>
      <trkpt lat="45.854208469390869" lon="8.73638391494751">
        <ele>573.083251953125</ele>
        <time>2008-02-03T10:19:33Z</time>
      </trkpt>
      <trkpt lat="45.854165554046631" lon="8.736340999603272">
        <ele>574.04443359375</ele>
        <time>2008-02-03T10:19:39Z</time>
      </trkpt>
      <trkpt lat="45.854144096374512" lon="8.736233711242676">
        <ele>576.928466796875</ele>
        <time>2008-02-03T10:20:19Z</time>
      </trkpt>
      <trkpt lat="45.853908061981201" lon="8.735997676849365">
        <ele>576.44775390625</ele>
        <time>2008-02-03T10:20:29Z</time>
      </trkpt>
      <trkpt lat="45.853800773620605" lon="8.735826015472412">
        <ele>576.928466796875</ele>
        <time>2008-02-03T10:20:35Z</time>
      </trkpt>
      <trkpt lat="45.853886604309082" lon="8.735654354095459">
        <ele>576.928466796875</ele>
        <time>2008-02-03T10:20:41Z</time>
      </trkpt>
      <trkpt lat="45.854036808013916" lon="8.735482692718506">
        <ele>574.04443359375</ele>
        <time>2008-02-03T10:20:49Z</time>
      </trkpt>
      <trkpt lat="45.854165554046631" lon="8.735096454620361">
        <ele>575.486328125</ele>
        <time>2008-02-03T10:21:01Z</time>
      </trkpt>
      <trkpt lat="45.854251384735107" lon="8.734796047210693">
        <ele>575.486328125</ele>
        <time>2008-02-03T10:21:12Z</time>
      </trkpt>
      <trkpt lat="45.854272842407227" lon="8.734431266784668">
        <ele>575.486328125</ele>
        <time>2008-02-03T10:21:24Z</time>
      </trkpt>
      <trkpt lat="45.854315757751465" lon="8.734002113342285">
        <ele>575.967041015625</ele>
        <time>2008-02-03T10:21:37Z</time>
      </trkpt>
      <trkpt lat="45.854358673095703" lon="8.733680248260498">
        <ele>576.928466796875</ele>
        <time>2008-02-03T10:21:48Z</time>
      </trkpt>
      <trkpt lat="45.854358673095703" lon="8.733229637145996">
        <ele>580.29296875</ele>
        <time>2008-02-03T10:22:02Z</time>
      </trkpt>
      <trkpt lat="45.854380130767822" lon="8.732929229736328">
        <ele>581.25439453125</ele>
        <time>2008-02-03T10:22:12Z</time>
      </trkpt>
      <trkpt lat="45.85444450378418" lon="8.732607364654541">
        <ele>582.215576171875</ele>
        <time>2008-02-03T10:22:22Z</time>
      </trkpt>
      <trkpt lat="45.854508876800537" lon="8.732178211212158">
        <ele>581.73486328125</ele>
        <time>2008-02-03T10:22:35Z</time>
      </trkpt>
      <trkpt lat="45.854659080505371" lon="8.731963634490967">
        <ele>583.1767578125</ele>
        <time>2008-02-03T10:22:45Z</time>
      </trkpt>
      <trkpt lat="45.854809284210205" lon="8.731706142425537">
        <ele>585.099609375</ele>
        <time>2008-02-03T10:22:55Z</time>
      </trkpt>
      <trkpt lat="45.855023860931396" lon="8.731276988983154">
        <ele>582.215576171875</ele>
        <time>2008-02-03T10:23:09Z</time>
      </trkpt>
      <trkpt lat="45.85517406463623" lon="8.731062412261963">
        <ele>582.6962890625</ele>
        <time>2008-02-03T10:23:20Z</time>
      </trkpt>
      <trkpt lat="45.855388641357422" lon="8.731040954589844">
        <ele>583.657470703125</ele>
        <time>2008-02-03T10:23:30Z</time>
      </trkpt>
      <trkpt lat="45.855581760406494" lon="8.731083869934082">
        <ele>587.502685546875</ele>
        <time>2008-02-03T10:23:42Z</time>
      </trkpt>
      <trkpt lat="45.855710506439209" lon="8.731040954589844">
        <ele>590.386962890625</ele>
        <time>2008-02-03T10:23:51Z</time>
      </trkpt>
      <trkpt lat="45.855903625488281" lon="8.730912208557129">
        <ele>592.3095703125</ele>
        <time>2008-02-03T10:24:02Z</time>
      </trkpt>
      <trkpt lat="45.856161117553711" lon="8.730804920196533">
        <ele>591.34814453125</ele>
        <time>2008-02-03T10:24:17Z</time>
      </trkpt>
      <trkpt lat="45.856397151947021" lon="8.730826377868652">
        <ele>590.867431640625</ele>
        <time>2008-02-03T10:24:28Z</time>
      </trkpt>
      <trkpt lat="45.856654644012451" lon="8.730719089508057">
        <ele>593.75146484375</ele>
        <time>2008-02-03T10:24:42Z</time>
      </trkpt>
      <trkpt lat="45.856912136077881" lon="8.730440139770508">
        <ele>596.15478515625</ele>
        <time>2008-02-03T10:24:56Z</time>
      </trkpt>
      <trkpt lat="45.857062339782715" lon="8.730247020721436">
        <ele>597.5966796875</ele>
        <time>2008-02-03T10:25:05Z</time>
      </trkpt>
      <trkpt lat="45.857234001159668" lon="8.730010986328125">
        <ele>599.03857421875</ele>
        <time>2008-02-03T10:25:17Z</time>
      </trkpt>
      <trkpt lat="45.857362747192383" lon="8.729796409606934">
        <ele>605.287353515625</ele>
        <time>2008-02-03T10:25:29Z</time>
      </trkpt>
      <trkpt lat="45.857470035552979" lon="8.729603290557861">
        <ele>605.76806640625</ele>
        <time>2008-02-03T10:25:40Z</time>
      </trkpt>
      <trkpt lat="45.857598781585693" lon="8.729281425476074">
        <ele>607.690673828125</ele>
        <time>2008-02-03T10:25:53Z</time>
      </trkpt>
      <trkpt lat="45.857770442962646" lon="8.728938102722168">
        <ele>605.76806640625</ele>
        <time>2008-02-03T10:26:08Z</time>
      </trkpt>
      <trkpt lat="45.857877731323242" lon="8.728852272033691">
        <ele>608.65185546875</ele>
        <time>2008-02-03T10:26:16Z</time>
      </trkpt>
      <trkpt lat="45.858027935028076" lon="8.728873729705811">
        <ele>609.132568359375</ele>
        <time>2008-02-03T10:26:27Z</time>
      </trkpt>
      <trkpt lat="45.85817813873291" lon="8.728830814361572">
        <ele>609.61328125</ele>
        <time>2008-02-03T10:26:43Z</time>
      </trkpt>
      <trkpt lat="45.858328342437744" lon="8.728744983673096">
        <ele>613.93896484375</ele>
        <time>2008-02-03T10:26:58Z</time>
      </trkpt>
      <trkpt lat="45.85843563079834" lon="8.728551864624023">
        <ele>616.34228515625</ele>
        <time>2008-02-03T10:27:12Z</time>
      </trkpt>
      <trkpt lat="45.858500003814697" lon="8.728251457214356">
        <ele>617.3037109375</ele>
        <time>2008-02-03T10:27:24Z</time>
      </trkpt>
      <trkpt lat="45.858650207519531" lon="8.72788667678833">
        <ele>618.264892578125</ele>
        <time>2008-02-03T10:27:37Z</time>
      </trkpt>
      <trkpt lat="45.858886241912842" lon="8.727543354034424">
        <ele>619.226318359375</ele>
        <time>2008-02-03T10:27:54Z</time>
      </trkpt>
      <trkpt lat="45.859036445617676" lon="8.727436065673828">
        <ele>620.66845703125</ele>
        <time>2008-02-03T10:28:03Z</time>
      </trkpt>
      <trkpt lat="45.85918664932251" lon="8.727478981018066">
        <ele>621.149169921875</ele>
        <time>2008-02-03T10:28:11Z</time>
      </trkpt>
      <trkpt lat="45.85942268371582" lon="8.727564811706543">
        <ele>621.629638671875</ele>
        <time>2008-02-03T10:28:24Z</time>
      </trkpt>
      <trkpt lat="45.859637260437012" lon="8.727500438690186">
        <ele>623.07177734375</ele>
        <time>2008-02-03T10:28:35Z</time>
      </trkpt>
      <trkpt lat="45.859851837158203" lon="8.727307319641113">
        <ele>623.552490234375</ele>
        <time>2008-02-03T10:28:49Z</time>
      </trkpt>
      <trkpt lat="45.860002040863037" lon="8.727200031280518">
        <ele>624.513671875</ele>
        <time>2008-02-03T10:29:01Z</time>
      </trkpt>
      <trkpt lat="45.860195159912109" lon="8.727092742919922">
        <ele>626.436279296875</ele>
        <time>2008-02-03T10:29:16Z</time>
      </trkpt>
      <trkpt lat="45.860388278961182" lon="8.726963996887207">
        <ele>629.80078125</ele>
        <time>2008-02-03T10:29:33Z</time>
      </trkpt>
      <trkpt lat="45.860517024993896" lon="8.726878166198731">
        <ele>633.64599609375</ele>
        <time>2008-02-03T10:29:44Z</time>
      </trkpt>
      <trkpt lat="45.86068868637085" lon="8.726727962493897">
        <ele>632.2041015625</ele>
        <time>2008-02-03T10:30:00Z</time>
      </trkpt>
      <trkpt lat="45.860731601715088" lon="8.726663589477539">
        <ele>633.165283203125</ele>
        <time>2008-02-03T10:30:03Z</time>
      </trkpt>
      <trkpt lat="45.860860347747803" lon="8.726513385772705">
        <ele>634.607421875</ele>
        <time>2008-02-03T10:30:15Z</time>
      </trkpt>
      <trkpt lat="45.861096382141113" lon="8.726427555084229">
        <ele>636.5302734375</ele>
        <time>2008-02-03T10:30:30Z</time>
      </trkpt>
      <trkpt lat="45.861268043518066" lon="8.726406097412109">
        <ele>636.049560546875</ele>
        <time>2008-02-03T10:30:41Z</time>
      </trkpt>
      <trkpt lat="45.86143970489502" lon="8.72638463973999">
        <ele>638.93359375</ele>
        <time>2008-02-03T10:30:52Z</time>
      </trkpt>
      <trkpt lat="45.861546993255615" lon="8.726341724395752">
        <ele>638.93359375</ele>
        <time>2008-02-03T10:30:59Z</time>
      </trkpt>
      <trkpt lat="45.861611366271973" lon="8.726212978363037">
        <ele>638.452880859375</ele>
        <time>2008-02-03T10:31:08Z</time>
      </trkpt>
      <trkpt lat="45.861740112304688" lon="8.726084232330322">
        <ele>639.4140625</ele>
        <time>2008-02-03T10:31:18Z</time>
      </trkpt>
      <trkpt lat="45.861911773681641" lon="8.725869655609131">
        <ele>640.37548828125</ele>
        <time>2008-02-03T10:31:32Z</time>
      </trkpt>
      <trkpt lat="45.862147808074951" lon="8.725569248199463">
        <ele>641.8173828125</ele>
        <time>2008-02-03T10:31:52Z</time>
      </trkpt>
      <trkpt lat="45.862212181091309" lon="8.725526332855225">
        <ele>642.77880859375</ele>
        <time>2008-02-03T10:31:59Z</time>
      </trkpt>
      <trkpt lat="45.862383842468262" lon="8.725783824920654">
        <ele>646.143310546875</ele>
        <time>2008-02-03T10:32:18Z</time>
      </trkpt>
      <trkpt lat="45.862555503845215" lon="8.725912570953369">
        <ele>647.585205078125</ele>
        <time>2008-02-03T10:32:33Z</time>
      </trkpt>
      <trkpt lat="45.862791538238525" lon="8.725976943969727">
        <ele>647.1044921875</ele>
        <time>2008-02-03T10:32:51Z</time>
      </trkpt>
      <trkpt lat="45.863006114959717" lon="8.725848197937012">
        <ele>649.5078125</ele>
        <time>2008-02-03T10:33:06Z</time>
      </trkpt>
      <trkpt lat="45.863113403320312" lon="8.725740909576416">
        <ele>649.988525390625</ele>
        <time>2008-02-03T10:33:14Z</time>
      </trkpt>
      <trkpt lat="45.863285064697266" lon="8.725311756134033">
        <ele>651.430419921875</ele>
        <time>2008-02-03T10:33:36Z</time>
      </trkpt>
      <trkpt lat="45.863306522369385" lon="8.725054264068604">
        <ele>654.795166015625</ele>
        <time>2008-02-03T10:33:47Z</time>
      </trkpt>
      <trkpt lat="45.863306522369385" lon="8.724989891052246">
        <ele>655.27587890625</ele>
        <time>2008-02-03T10:33:49Z</time>
      </trkpt>
      <trkpt lat="45.863392353057861" lon="8.724775314331055">
        <ele>657.198486328125</ele>
        <time>2008-02-03T10:34:01Z</time>
      </trkpt>
      <trkpt lat="45.863542556762695" lon="8.724603652954102">
        <ele>678.347412109375</ele>
        <time>2008-02-03T10:37:12Z</time>
      </trkpt>
      <trkpt lat="45.863692760467529" lon="8.724431991577148">
        <ele>675.944091796875</ele>
        <time>2008-02-03T10:37:24Z</time>
      </trkpt>
      <trkpt lat="45.863885879516602" lon="8.724217414855957">
        <ele>674.502197265625</ele>
        <time>2008-02-03T10:37:37Z</time>
      </trkpt>
      <trkpt lat="45.864078998565674" lon="8.724131584167481">
        <ele>671.6181640625</ele>
        <time>2008-02-03T10:37:47Z</time>
      </trkpt>
      <trkpt lat="45.864293575286865" lon="8.724024295806885">
        <ele>672.098876953125</ele>
        <time>2008-02-03T10:38:00Z</time>
      </trkpt>
      <trkpt lat="45.864465236663818" lon="8.723874092102051">
        <ele>670.656982421875</ele>
        <time>2008-02-03T10:38:11Z</time>
      </trkpt>
      <trkpt lat="45.864615440368652" lon="8.723595142364502">
        <ele>671.6181640625</ele>
        <time>2008-02-03T10:38:26Z</time>
      </trkpt>
      <trkpt lat="45.864615440368652" lon="8.723552227020264">
        <ele>675.46337890625</ele>
        <time>2008-02-03T10:38:31Z</time>
      </trkpt>
      <trkpt lat="45.864658355712891" lon="8.723487854003906">
        <ele>674.98291015625</ele>
        <time>2008-02-03T10:38:37Z</time>
      </trkpt>
      <trkpt lat="45.864787101745605" lon="8.723316192626953">
        <ele>674.98291015625</ele>
        <time>2008-02-03T10:38:50Z</time>
      </trkpt>
      <trkpt lat="45.864980220794678" lon="8.723058700561523">
        <ele>674.98291015625</ele>
        <time>2008-02-03T10:39:05Z</time>
      </trkpt>
      <trkpt lat="45.865001678466797" lon="8.723015785217285">
        <ele>673.060302734375</ele>
        <time>2008-02-03T10:39:12Z</time>
      </trkpt>
      <trkpt lat="45.865087509155273" lon="8.72288703918457">
        <ele>667.292236328125</ele>
        <time>2008-02-03T10:39:38Z</time>
      </trkpt>
      <trkpt lat="45.865194797515869" lon="8.722844123840332">
        <ele>666.8115234375</ele>
        <time>2008-02-03T10:39:55Z</time>
      </trkpt>
      <trkpt lat="45.865323543548584" lon="8.722672462463379">
        <ele>666.330810546875</ele>
        <time>2008-02-03T10:40:08Z</time>
      </trkpt>
      <trkpt lat="45.865452289581299" lon="8.722479343414307">
        <ele>669.215087890625</ele>
        <time>2008-02-03T10:40:18Z</time>
      </trkpt>
      <trkpt lat="45.865559577941895" lon="8.722221851348877">
        <ele>671.6181640625</ele>
        <time>2008-02-03T10:40:32Z</time>
      </trkpt>
      <trkpt lat="45.86566686630249" lon="8.721964359283447">
        <ele>673.541015625</ele>
        <time>2008-02-03T10:40:50Z</time>
      </trkpt>
      <trkpt lat="45.865838527679443" lon="8.721706867218018">
        <ele>675.944091796875</ele>
        <time>2008-02-03T10:41:10Z</time>
      </trkpt>
      <trkpt lat="45.866031646728516" lon="8.721535205841065">
        <ele>678.828125</ele>
        <time>2008-02-03T10:41:29Z</time>
      </trkpt>
      <trkpt lat="45.866096019744873" lon="8.721427917480469">
        <ele>679.789306640625</ele>
        <time>2008-02-03T10:41:47Z</time>
      </trkpt>
      <trkpt lat="45.866138935089111" lon="8.721320629119873">
        <ele>680.750732421875</ele>
        <time>2008-02-03T10:41:55Z</time>
      </trkpt>
      <trkpt lat="45.866224765777588" lon="8.721191883087158">
        <ele>684.115478515625</ele>
        <time>2008-02-03T10:42:08Z</time>
      </trkpt>
      <trkpt lat="45.866289138793945" lon="8.721041679382324">
        <ele>684.115478515625</ele>
        <time>2008-02-03T10:42:21Z</time>
      </trkpt>
      <trkpt lat="45.866289138793945" lon="8.720977306365967">
        <ele>686.999267578125</ele>
        <time>2008-02-03T10:42:31Z</time>
      </trkpt>
      <trkpt lat="45.866289138793945" lon="8.720934391021729">
        <ele>676.4248046875</ele>
        <time>2008-02-03T10:44:34Z</time>
      </trkpt>
      <trkpt lat="45.866310596466064" lon="8.720870018005371">
        <ele>676.905517578125</ele>
        <time>2008-02-03T10:44:40Z</time>
      </trkpt>
      <trkpt lat="45.866310596466064" lon="8.720805644989014">
        <ele>678.828125</ele>
        <time>2008-02-03T10:44:48Z</time>
      </trkpt>
      <trkpt lat="45.866332054138184" lon="8.720784187316895">
        <ele>678.828125</ele>
        <time>2008-02-03T10:44:51Z</time>
      </trkpt>
      <trkpt lat="45.866332054138184" lon="8.72065544128418">
        <ele>680.750732421875</ele>
        <time>2008-02-03T10:44:58Z</time>
      </trkpt>
      <trkpt lat="45.86641788482666" lon="8.720419406890869">
        <ele>682.67333984375</ele>
        <time>2008-02-03T10:45:13Z</time>
      </trkpt>
      <trkpt lat="45.866503715515137" lon="8.720355033874512">
        <ele>686.518798828125</ele>
        <time>2008-02-03T10:45:22Z</time>
      </trkpt>
      <trkpt lat="45.866546630859375" lon="8.720333576202393">
        <ele>686.999267578125</ele>
        <time>2008-02-03T10:45:27Z</time>
      </trkpt>
      <trkpt lat="45.866653919219971" lon="8.720226287841797">
        <ele>690.844482421875</ele>
        <time>2008-02-03T10:45:43Z</time>
      </trkpt>
      <trkpt lat="45.866632461547852" lon="8.720204830169678">
        <ele>690.844482421875</ele>
        <time>2008-02-03T10:45:45Z</time>
      </trkpt>
      <trkpt lat="45.866482257843018" lon="8.719968795776367">
        <ele>691.3251953125</ele>
        <time>2008-02-03T10:45:58Z</time>
      </trkpt>
      <trkpt lat="45.866267681121826" lon="8.719754219055176">
        <ele>696.1318359375</ele>
        <time>2008-02-03T10:46:11Z</time>
      </trkpt>
      <trkpt lat="45.866074562072754" lon="8.719518184661865">
        <ele>696.612548828125</ele>
        <time>2008-02-03T10:46:24Z</time>
      </trkpt>
      <trkpt lat="45.865945816040039" lon="8.719303607940674">
        <ele>696.1318359375</ele>
        <time>2008-02-03T10:46:36Z</time>
      </trkpt>
      <trkpt lat="45.865838527679443" lon="8.71915340423584">
        <ele>691.805908203125</ele>
        <time>2008-02-03T10:46:48Z</time>
      </trkpt>
      <trkpt lat="45.865645408630371" lon="8.718960285186768">
        <ele>691.805908203125</ele>
        <time>2008-02-03T10:46:58Z</time>
      </trkpt>
      <trkpt lat="45.865581035614014" lon="8.71889591217041">
        <ele>691.3251953125</ele>
        <time>2008-02-03T10:47:05Z</time>
      </trkpt>
      <trkpt lat="45.865581035614014" lon="8.718788623809815">
        <ele>688.44140625</ele>
        <time>2008-02-03T10:47:44Z</time>
      </trkpt>
      <trkpt lat="45.865645408630371" lon="8.718574047088623">
        <ele>689.88330078125</ele>
        <time>2008-02-03T10:47:56Z</time>
      </trkpt>
      <trkpt lat="45.86566686630249" lon="8.718338012695313">
        <ele>690.844482421875</ele>
        <time>2008-02-03T10:48:03Z</time>
      </trkpt>
      <trkpt lat="45.865623950958252" lon="8.718059062957764">
        <ele>692.28662109375</ele>
        <time>2008-02-03T10:48:13Z</time>
      </trkpt>
      <trkpt lat="45.865645408630371" lon="8.717994689941406">
        <ele>692.28662109375</ele>
        <time>2008-02-03T10:48:16Z</time>
      </trkpt>
      <trkpt lat="45.865581035614014" lon="8.717758655548096">
        <ele>692.28662109375</ele>
        <time>2008-02-03T10:48:23Z</time>
      </trkpt>
      <trkpt lat="45.865581035614014" lon="8.717265129089356">
        <ele>693.247802734375</ele>
        <time>2008-02-03T10:48:35Z</time>
      </trkpt>
      <trkpt lat="45.865623950958252" lon="8.71690034866333">
        <ele>693.728515625</ele>
        <time>2008-02-03T10:48:46Z</time>
      </trkpt>
      <trkpt lat="45.865795612335205" lon="8.716578483581543">
        <ele>696.1318359375</ele>
        <time>2008-02-03T10:49:03Z</time>
      </trkpt>
      <trkpt lat="45.865902900695801" lon="8.716363906860352">
        <ele>700.4580078125</ele>
        <time>2008-02-03T10:49:17Z</time>
      </trkpt>
      <trkpt lat="45.866031646728516" lon="8.71614933013916">
        <ele>700.9384765625</ele>
        <time>2008-02-03T10:49:33Z</time>
      </trkpt>
      <trkpt lat="45.86616039276123" lon="8.715891838073731">
        <ele>704.30322265625</ele>
        <time>2008-02-03T10:49:51Z</time>
      </trkpt>
      <trkpt lat="45.86616039276123" lon="8.715827465057373">
        <ele>703.822509765625</ele>
        <time>2008-02-03T10:49:58Z</time>
      </trkpt>
      <trkpt lat="45.86618185043335" lon="8.715569972991943">
        <ele>703.341796875</ele>
        <time>2008-02-03T10:50:11Z</time>
      </trkpt>
      <trkpt lat="45.86618185043335" lon="8.715527057647705">
        <ele>703.341796875</ele>
        <time>2008-02-03T10:50:16Z</time>
      </trkpt>
      <trkpt lat="45.866224765777588" lon="8.715376853942871">
        <ele>703.822509765625</ele>
        <time>2008-02-03T10:50:24Z</time>
      </trkpt>
      <trkpt lat="45.866439342498779" lon="8.714947700500488">
        <ele>701.89990234375</ele>
        <time>2008-02-03T10:50:45Z</time>
      </trkpt>
      <trkpt lat="45.866653919219971" lon="8.714582920074463">
        <ele>702.38037109375</ele>
        <time>2008-02-03T10:50:58Z</time>
      </trkpt>
      <trkpt lat="45.86693286895752" lon="8.713853359222412">
        <ele>701.419189453125</ele>
        <time>2008-02-03T10:51:18Z</time>
      </trkpt>
      <trkpt lat="45.86742639541626" lon="8.712522983551025">
        <ele>700.9384765625</ele>
        <time>2008-02-03T10:51:50Z</time>
      </trkpt>
      <trkpt lat="45.869507789611816" lon="8.710119724273682">
        <ele>698.534912109375</ele>
        <time>2008-02-03T10:52:31Z</time>
      </trkpt>
      <trkpt lat="45.869593620300293" lon="8.710119724273682">
        <ele>693.247802734375</ele>
        <time>2008-02-03T10:52:36Z</time>
      </trkpt>
      <trkpt lat="45.869529247283936" lon="8.710076808929443">
        <ele>679.30859375</ele>
        <time>2008-02-03T10:52:57Z</time>
      </trkpt>
      <trkpt lat="45.869400501251221" lon="8.709990978240967">
        <ele>675.944091796875</ele>
        <time>2008-02-03T10:53:06Z</time>
      </trkpt>
      <trkpt lat="45.869100093841553" lon="8.709776401519775">
        <ele>673.541015625</ele>
        <time>2008-02-03T10:53:21Z</time>
      </trkpt>
      <trkpt lat="45.8689284324646" lon="8.709561824798584">
        <ele>673.060302734375</ele>
        <time>2008-02-03T10:53:32Z</time>
      </trkpt>
      <trkpt lat="45.869078636169434" lon="8.709003925323486">
        <ele>671.6181640625</ele>
        <time>2008-02-03T10:53:46Z</time>
      </trkpt>
      <trkpt lat="45.869207382202148" lon="8.70842456817627">
        <ele>673.060302734375</ele>
        <time>2008-02-03T10:53:56Z</time>
      </trkpt>
      <trkpt lat="45.86967945098877" lon="8.707823753356934">
        <ele>673.060302734375</ele>
        <time>2008-02-03T10:54:17Z</time>
      </trkpt>
      <trkpt lat="45.871396064758301" lon="8.708209991455078">
        <ele>673.060302734375</ele>
        <time>2008-02-03T10:54:40Z</time>
      </trkpt>
      <trkpt lat="45.871202945709229" lon="8.707094192504883">
        <ele>671.1376953125</ele>
        <time>2008-02-03T10:54:53Z</time>
      </trkpt>
      <trkpt lat="45.871224403381348" lon="8.707072734832764">
        <ele>671.1376953125</ele>
        <time>2008-02-03T10:54:54Z</time>
      </trkpt>
      <trkpt lat="45.871031284332275" lon="8.706986904144287">
        <ele>671.1376953125</ele>
        <time>2008-02-03T10:54:58Z</time>
      </trkpt>
      <trkpt lat="45.871009826660156" lon="8.70692253112793">
        <ele>671.1376953125</ele>
        <time>2008-02-03T10:55:00Z</time>
      </trkpt>
      <trkpt lat="45.870859622955322" lon="8.706493377685547">
        <ele>665.36962890625</ele>
        <time>2008-02-03T10:55:15Z</time>
      </trkpt>
      <trkpt lat="45.870451927185059" lon="8.706214427947998">
        <ele>661.043701171875</ele>
        <time>2008-02-03T10:55:23Z</time>
      </trkpt>
      <trkpt lat="45.87017297744751" lon="8.70617151260376">
        <ele>659.12109375</ele>
        <time>2008-02-03T10:55:31Z</time>
      </trkpt>
      <trkpt lat="45.869829654693604" lon="8.706042766571045">
        <ele>656.237060546875</ele>
        <time>2008-02-03T10:55:41Z</time>
      </trkpt>
      <trkpt lat="45.869293212890625" lon="8.705613613128662">
        <ele>655.756591796875</ele>
        <time>2008-02-03T10:55:57Z</time>
      </trkpt>
      <trkpt lat="45.868992805480957" lon="8.705270290374756">
        <ele>651.430419921875</ele>
        <time>2008-02-03T10:56:06Z</time>
      </trkpt>
      <trkpt lat="45.868649482727051" lon="8.704755306243897">
        <ele>646.143310546875</ele>
        <time>2008-02-03T10:56:21Z</time>
      </trkpt>
      <trkpt lat="45.868520736694336" lon="8.704347610473633">
        <ele>642.298095703125</ele>
        <time>2008-02-03T10:56:32Z</time>
      </trkpt>
      <trkpt lat="45.86841344833374" lon="8.703746795654297">
        <ele>634.607421875</ele>
        <time>2008-02-03T10:56:47Z</time>
      </trkpt>
      <trkpt lat="45.868864059448242" lon="8.70368242263794">
        <ele>557.221435546875</ele>
        <time>2008-02-03T10:58:25Z</time>
      </trkpt>
      <trkpt lat="45.868821144104004" lon="8.703596591949463">
        <ele>558.182861328125</ele>
        <time>2008-02-03T10:58:35Z</time>
      </trkpt>
      <trkpt lat="45.868842601776123" lon="8.703253269195557">
        <ele>556.260009765625</ele>
        <time>2008-02-03T10:58:50Z</time>
      </trkpt>
      <trkpt lat="45.8689284324646" lon="8.702459335327148">
        <ele>555.779296875</ele>
        <time>2008-02-03T10:59:33Z</time>
      </trkpt>
      <trkpt lat="45.869636535644531" lon="8.701751232147217">
        <ele>555.779296875</ele>
        <time>2008-02-03T10:59:39Z</time>
      </trkpt>
      <trkpt lat="45.869894027709961" lon="8.701729774475098">
        <ele>555.779296875</ele>
        <time>2008-02-03T10:59:43Z</time>
      </trkpt>
      <trkpt lat="45.870022773742676" lon="8.701858520507813">
        <ele>556.74072265625</ele>
        <time>2008-02-03T10:59:51Z</time>
      </trkpt>
      <trkpt lat="45.870902538299561" lon="8.702008724212647">
        <ele>554.81787109375</ele>
        <time>2008-02-03T11:00:21Z</time>
      </trkpt>
      <trkpt lat="45.871224403381348" lon="8.702158927917481">
        <ele>554.81787109375</ele>
        <time>2008-02-03T11:00:27Z</time>
      </trkpt>
      <trkpt lat="45.871396064758301" lon="8.7021803855896">
        <ele>554.81787109375</ele>
        <time>2008-02-03T11:00:30Z</time>
      </trkpt>
      <trkpt lat="45.871717929840088" lon="8.702330589294434">
        <ele>553.856689453125</ele>
        <time>2008-02-03T11:00:39Z</time>
      </trkpt>
      <trkpt lat="45.872147083282471" lon="8.70241641998291">
        <ele>553.856689453125</ele>
        <time>2008-02-03T11:00:53Z</time>
      </trkpt>
      <trkpt lat="45.872447490692139" lon="8.702287673950195">
        <ele>550.4921875</ele>
        <time>2008-02-03T11:01:03Z</time>
      </trkpt>
      <trkpt lat="45.872812271118164" lon="8.702244758605957">
        <ele>550.4921875</ele>
        <time>2008-02-03T11:01:20Z</time>
      </trkpt>
      <trkpt lat="45.873026847839355" lon="8.702244758605957">
        <ele>550.4921875</ele>
        <time>2008-02-03T11:01:39Z</time>
      </trkpt>
      <trkpt lat="45.873241424560547" lon="8.702330589294434">
        <ele>549.53076171875</ele>
        <time>2008-02-03T11:01:54Z</time>
      </trkpt>
      <trkpt lat="45.873370170593262" lon="8.702394962310791">
        <ele>549.53076171875</ele>
        <time>2008-02-03T11:02:03Z</time>
      </trkpt>
      <trkpt lat="45.873606204986572" lon="8.702545166015625">
        <ele>547.608154296875</ele>
        <time>2008-02-03T11:02:15Z</time>
      </trkpt>
      <trkpt lat="45.873799324035645" lon="8.702652454376221">
        <ele>547.12744140625</ele>
        <time>2008-02-03T11:02:25Z</time>
      </trkpt>
      <trkpt lat="45.874078273773193" lon="8.702738285064697">
        <ele>547.12744140625</ele>
        <time>2008-02-03T11:02:37Z</time>
      </trkpt>
      <trkpt lat="45.87440013885498" lon="8.703038692474365">
        <ele>547.12744140625</ele>
        <time>2008-02-03T11:02:46Z</time>
      </trkpt>
      <trkpt lat="45.874764919281006" lon="8.703210353851318">
        <ele>547.12744140625</ele>
        <time>2008-02-03T11:02:55Z</time>
      </trkpt>
      <trkpt lat="45.875194072723389" lon="8.703467845916748">
        <ele>546.6468505859375</ele>
        <time>2008-02-03T11:03:05Z</time>
      </trkpt>
      <trkpt lat="45.875837802886963" lon="8.703854084014893">
        <ele>546.6468505859375</ele>
        <time>2008-02-03T11:03:18Z</time>
      </trkpt>
      <trkpt lat="45.876224040985107" lon="8.704047203063965">
        <ele>546.6468505859375</ele>
        <time>2008-02-03T11:03:26Z</time>
      </trkpt>
      <trkpt lat="45.876309871673584" lon="8.704111576080322">
        <ele>546.6468505859375</ele>
        <time>2008-02-03T11:03:28Z</time>
      </trkpt>
      <trkpt lat="45.876760482788086" lon="8.704626560211182">
        <ele>546.6468505859375</ele>
        <time>2008-02-03T11:03:37Z</time>
      </trkpt>
      <trkpt lat="45.876846313476562" lon="8.704733848571777">
        <ele>546.6468505859375</ele>
        <time>2008-02-03T11:03:39Z</time>
      </trkpt>
      <trkpt lat="45.876932144165039" lon="8.704755306243897">
        <ele>544.7242431640625</ele>
        <time>2008-02-03T11:03:48Z</time>
      </trkpt>
      <trkpt lat="45.876824855804443" lon="8.704626560211182">
        <ele>525.9783935546875</ele>
        <time>2008-02-03T11:04:33Z</time>
      </trkpt>
      <trkpt lat="45.876932144165039" lon="8.704454898834229">
        <ele>523.0946044921875</ele>
        <time>2008-02-03T11:04:45Z</time>
      </trkpt>
      <trkpt lat="45.877125263214111" lon="8.704326152801514">
        <ele>522.6138916015625</ele>
        <time>2008-02-03T11:04:55Z</time>
      </trkpt>
      <trkpt lat="45.877318382263184" lon="8.704218864440918">
        <ele>522.6138916015625</ele>
        <time>2008-02-03T11:05:06Z</time>
      </trkpt>
      <trkpt lat="45.877554416656494" lon="8.704090118408203">
        <ele>522.6138916015625</ele>
        <time>2008-02-03T11:05:16Z</time>
      </trkpt>
      <trkpt lat="45.877854824066162" lon="8.704068660736084">
        <ele>522.6138916015625</ele>
        <time>2008-02-03T11:05:28Z</time>
      </trkpt>
      <trkpt lat="45.877940654754639" lon="8.704111576080322">
        <ele>463.0120849609375</ele>
        <time>2008-02-03T11:05:35Z</time>
      </trkpt>
      <trkpt lat="45.877768993377686" lon="8.703896999359131">
        <ele>452.4376220703125</ele>
        <time>2008-02-03T11:05:53Z</time>
      </trkpt>
      <trkpt lat="45.877683162689209" lon="8.704090118408203">
        <ele>452.4376220703125</ele>
        <time>2008-02-03T11:06:05Z</time>
      </trkpt>
      <trkpt lat="45.877790451049805" lon="8.704519271850586">
        <ele>452.4376220703125</ele>
        <time>2008-02-03T11:06:18Z</time>
      </trkpt>
      <trkpt lat="45.877962112426758" lon="8.705012798309326">
        <ele>452.4376220703125</ele>
        <time>2008-02-03T11:06:28Z</time>
      </trkpt>
      <trkpt lat="45.878112316131592" lon="8.705720901489258">
        <ele>452.4376220703125</ele>
        <time>2008-02-03T11:06:41Z</time>
      </trkpt>
      <trkpt lat="45.87815523147583" lon="8.706085681915283">
        <ele>452.4376220703125</ele>
        <time>2008-02-03T11:06:48Z</time>
      </trkpt>
      <trkpt lat="45.878348350524902" lon="8.706643581390381">
        <ele>452.4376220703125</ele>
        <time>2008-02-03T11:07:00Z</time>
      </trkpt>
      <trkpt lat="45.878605842590332" lon="8.707222938537598">
        <ele>452.918212890625</ele>
        <time>2008-02-03T11:07:12Z</time>
      </trkpt>
      <trkpt lat="45.878820419311523" lon="8.707609176635742">
        <ele>452.918212890625</ele>
        <time>2008-02-03T11:07:22Z</time>
      </trkpt>
      <trkpt lat="45.879077911376953" lon="8.708038330078125">
        <ele>452.918212890625</ele>
        <time>2008-02-03T11:07:30Z</time>
      </trkpt>
      <trkpt lat="45.879378318786621" lon="8.709025382995606">
        <ele>452.918212890625</ele>
        <time>2008-02-03T11:07:44Z</time>
      </trkpt>
      <trkpt lat="45.879421234130859" lon="8.709304332733154">
        <ele>452.918212890625</ele>
        <time>2008-02-03T11:07:50Z</time>
      </trkpt>
      <trkpt lat="45.879421234130859" lon="8.709690570831299">
        <ele>451.95703125</ele>
        <time>2008-02-03T11:07:58Z</time>
      </trkpt>
      <trkpt lat="45.879485607147217" lon="8.710076808929443">
        <ele>452.4376220703125</ele>
        <time>2008-02-03T11:08:07Z</time>
      </trkpt>
      <trkpt lat="45.879592895507813" lon="8.710441589355469">
        <ele>452.4376220703125</ele>
        <time>2008-02-03T11:08:17Z</time>
      </trkpt>
      <trkpt lat="45.879721641540527" lon="8.710784912109375">
        <ele>452.4376220703125</ele>
        <time>2008-02-03T11:08:26Z</time>
      </trkpt>
      <trkpt lat="45.879828929901123" lon="8.711106777191162">
        <ele>452.4376220703125</ele>
        <time>2008-02-03T11:08:35Z</time>
      </trkpt>
      <trkpt lat="45.879936218261719" lon="8.711450099945068">
        <ele>452.4376220703125</ele>
        <time>2008-02-03T11:08:44Z</time>
      </trkpt>
      <trkpt lat="45.880086421966553" lon="8.711814880371094">
        <ele>452.4376220703125</ele>
        <time>2008-02-03T11:08:52Z</time>
      </trkpt>
      <trkpt lat="45.880172252655029" lon="8.712072372436523">
        <ele>452.4376220703125</ele>
        <time>2008-02-03T11:08:58Z</time>
      </trkpt>
      <trkpt lat="45.880300998687744" lon="8.712179660797119">
        <ele>452.4376220703125</ele>
        <time>2008-02-03T11:09:04Z</time>
      </trkpt>
      <trkpt lat="45.880558490753174" lon="8.712351322174072">
        <ele>452.918212890625</ele>
        <time>2008-02-03T11:09:12Z</time>
      </trkpt>
      <trkpt lat="45.880837440490723" lon="8.712565898895264">
        <ele>452.918212890625</ele>
        <time>2008-02-03T11:09:20Z</time>
      </trkpt>
      <trkpt lat="45.881009101867676" lon="8.712694644927979">
        <ele>452.918212890625</ele>
        <time>2008-02-03T11:09:27Z</time>
      </trkpt>
      <trkpt lat="45.88115930557251" lon="8.712801933288574">
        <ele>452.918212890625</ele>
        <time>2008-02-03T11:09:34Z</time>
      </trkpt>
      <trkpt lat="45.881245136260986" lon="8.713102340698242">
        <ele>452.918212890625</ele>
        <time>2008-02-03T11:09:43Z</time>
      </trkpt>
      <trkpt lat="45.881288051605225" lon="8.713381290435791">
        <ele>452.918212890625</ele>
        <time>2008-02-03T11:09:53Z</time>
      </trkpt>
      <trkpt lat="45.881330966949463" lon="8.713638782501221">
        <ele>452.918212890625</ele>
        <time>2008-02-03T11:10:03Z</time>
      </trkpt>
      <trkpt lat="45.881352424621582" lon="8.713960647583008">
        <ele>452.918212890625</ele>
        <time>2008-02-03T11:10:17Z</time>
      </trkpt>
      <trkpt lat="45.881352424621582" lon="8.713939189910889">
        <ele>452.918212890625</ele>
        <time>2008-02-03T11:10:23Z</time>
      </trkpt>
      <trkpt lat="45.881330966949463" lon="8.713853359222412">
        <ele>452.918212890625</ele>
        <time>2008-02-03T11:10:49Z</time>
      </trkpt>
      <trkpt lat="45.88139533996582" lon="8.713939189910889">
        <ele>452.918212890625</ele>
        <time>2008-02-03T11:11:27Z</time>
      </trkpt>
      <trkpt lat="45.881459712982178" lon="8.714110851287842">
        <ele>452.918212890625</ele>
        <time>2008-02-03T11:11:36Z</time>
      </trkpt>
      <trkpt lat="45.881459712982178" lon="8.714175224304199">
        <ele>452.918212890625</ele>
        <time>2008-02-03T11:11:52Z</time>
      </trkpt>
      <trkpt lat="45.881438255310059" lon="8.714497089385986">
        <ele>452.4376220703125</ele>
        <time>2008-02-03T11:12:01Z</time>
      </trkpt>
      <trkpt lat="45.881309509277344" lon="8.714861869812012">
        <ele>452.4376220703125</ele>
        <time>2008-02-03T11:12:09Z</time>
      </trkpt>
      <trkpt lat="45.881438255310059" lon="8.715291023254395">
        <ele>452.918212890625</ele>
        <time>2008-02-03T11:12:19Z</time>
      </trkpt>
      <trkpt lat="45.88165283203125" lon="8.715569972991943">
        <ele>452.918212890625</ele>
        <time>2008-02-03T11:12:28Z</time>
      </trkpt>
      <trkpt lat="45.881717205047607" lon="8.715634346008301">
        <ele>452.918212890625</ele>
        <time>2008-02-03T11:12:31Z</time>
      </trkpt>
      <trkpt lat="45.881867408752441" lon="8.715698719024658">
        <ele>452.918212890625</ele>
        <time>2008-02-03T11:12:37Z</time>
      </trkpt>
      <trkpt lat="45.881953239440918" lon="8.715763092041016">
        <ele>452.918212890625</ele>
        <time>2008-02-03T11:12:39Z</time>
      </trkpt>
      <trkpt lat="45.88214635848999" lon="8.716084957122803">
        <ele>452.918212890625</ele>
        <time>2008-02-03T11:12:47Z</time>
      </trkpt>
      <trkpt lat="45.882382392883301" lon="8.7166428565979">
        <ele>452.918212890625</ele>
        <time>2008-02-03T11:13:00Z</time>
      </trkpt>
      <trkpt lat="45.882382392883301" lon="8.717179298400879">
        <ele>452.918212890625</ele>
        <time>2008-02-03T11:13:10Z</time>
      </trkpt>
      <trkpt lat="45.882360935211182" lon="8.717737197875977">
        <ele>452.918212890625</ele>
        <time>2008-02-03T11:13:21Z</time>
      </trkpt>
      <trkpt lat="45.882446765899658" lon="8.71814489364624">
        <ele>452.918212890625</ele>
        <time>2008-02-03T11:13:29Z</time>
      </trkpt>
      <trkpt lat="45.882468223571777" lon="8.718745708465576">
        <ele>452.918212890625</ele>
        <time>2008-02-03T11:13:41Z</time>
      </trkpt>
      <trkpt lat="45.882596969604492" lon="8.719174861907959">
        <ele>452.4376220703125</ele>
        <time>2008-02-03T11:13:50Z</time>
      </trkpt>
      <trkpt lat="45.882725715637207" lon="8.719453811645508">
        <ele>452.4376220703125</ele>
        <time>2008-02-03T11:13:58Z</time>
      </trkpt>
      <trkpt lat="45.883004665374756" lon="8.719732761383057">
        <ele>452.4376220703125</ele>
        <time>2008-02-03T11:14:08Z</time>
      </trkpt>
      <trkpt lat="45.883369445800781" lon="8.720247745513916">
        <ele>452.4376220703125</ele>
        <time>2008-02-03T11:14:21Z</time>
      </trkpt>
      <trkpt lat="45.883584022521973" lon="8.72065544128418">
        <ele>452.4376220703125</ele>
        <time>2008-02-03T11:14:31Z</time>
      </trkpt>
      <trkpt lat="45.883734226226807" lon="8.721106052398682">
        <ele>452.4376220703125</ele>
        <time>2008-02-03T11:14:41Z</time>
      </trkpt>
      <trkpt lat="45.883927345275879" lon="8.721320629119873">
        <ele>452.4376220703125</ele>
        <time>2008-02-03T11:14:48Z</time>
      </trkpt>
      <trkpt lat="45.884163379669189" lon="8.721535205841065">
        <ele>452.4376220703125</ele>
        <time>2008-02-03T11:14:56Z</time>
      </trkpt>
      <trkpt lat="45.884420871734619" lon="8.721685409545898">
        <ele>452.4376220703125</ele>
        <time>2008-02-03T11:15:06Z</time>
      </trkpt>
      <trkpt lat="45.884613990783691" lon="8.721535205841065">
        <ele>453.39892578125</ele>
        <time>2008-02-03T11:15:16Z</time>
      </trkpt>
      <trkpt lat="45.884721279144287" lon="8.721513748168945">
        <ele>453.39892578125</ele>
        <time>2008-02-03T11:15:22Z</time>
      </trkpt>
      <trkpt lat="45.884850025177002" lon="8.72164249420166">
        <ele>453.39892578125</ele>
        <time>2008-02-03T11:15:31Z</time>
      </trkpt>
      <trkpt lat="45.884957313537598" lon="8.722028732299805">
        <ele>453.879638671875</ele>
        <time>2008-02-03T11:15:45Z</time>
      </trkpt>
      <trkpt lat="45.885000228881836" lon="8.722436428070068">
        <ele>453.39892578125</ele>
        <time>2008-02-03T11:16:00Z</time>
      </trkpt>
      <trkpt lat="45.885107517242432" lon="8.722736835479736">
        <ele>453.39892578125</ele>
        <time>2008-02-03T11:16:13Z</time>
      </trkpt>
      <trkpt lat="45.885171890258789" lon="8.72290849685669">
        <ele>453.39892578125</ele>
        <time>2008-02-03T11:16:21Z</time>
      </trkpt>
      <trkpt lat="45.885257720947266" lon="8.723230361938477">
        <ele>453.39892578125</ele>
        <time>2008-02-03T11:16:34Z</time>
      </trkpt>
      <trkpt lat="45.885343551635742" lon="8.723509311676025">
        <ele>453.39892578125</ele>
        <time>2008-02-03T11:16:45Z</time>
      </trkpt>
      <trkpt lat="45.885536670684814" lon="8.723723888397217">
        <ele>453.39892578125</ele>
        <time>2008-02-03T11:16:57Z</time>
      </trkpt>
      <trkpt lat="45.885794162750244" lon="8.723874092102051">
        <ele>453.39892578125</ele>
        <time>2008-02-03T11:17:10Z</time>
      </trkpt>
      <trkpt lat="45.886073112487793" lon="8.724110126495361">
        <ele>453.39892578125</ele>
        <time>2008-02-03T11:17:24Z</time>
      </trkpt>
      <trkpt lat="45.886287689208984" lon="8.724324703216553">
        <ele>453.39892578125</ele>
        <time>2008-02-03T11:17:34Z</time>
      </trkpt>
      <trkpt lat="45.886416435241699" lon="8.724625110626221">
        <ele>453.39892578125</ele>
        <time>2008-02-03T11:17:43Z</time>
      </trkpt>
      <trkpt lat="45.886566638946533" lon="8.725011348724365">
        <ele>453.39892578125</ele>
        <time>2008-02-03T11:17:56Z</time>
      </trkpt>
      <trkpt lat="45.886609554290771" lon="8.725376129150391">
        <ele>453.39892578125</ele>
        <time>2008-02-03T11:18:08Z</time>
      </trkpt>
      <trkpt lat="45.886588096618652" lon="8.725869655609131">
        <ele>453.39892578125</ele>
        <time>2008-02-03T11:18:23Z</time>
      </trkpt>
      <trkpt lat="45.886609554290771" lon="8.726105690002441">
        <ele>453.39892578125</ele>
        <time>2008-02-03T11:18:32Z</time>
      </trkpt>
      <trkpt lat="45.886588096618652" lon="8.726406097412109">
        <ele>453.879638671875</ele>
        <time>2008-02-03T11:18:44Z</time>
      </trkpt>
      <trkpt lat="45.886502265930176" lon="8.726792335510254">
        <ele>453.879638671875</ele>
        <time>2008-02-03T11:18:58Z</time>
      </trkpt>
      <trkpt lat="45.88639497756958" lon="8.727350234985352">
        <ele>453.879638671875</ele>
        <time>2008-02-03T11:19:19Z</time>
      </trkpt>
      <trkpt lat="45.886416435241699" lon="8.727586269378662">
        <ele>453.879638671875</ele>
        <time>2008-02-03T11:19:34Z</time>
      </trkpt>
      <trkpt lat="45.886437892913818" lon="8.727822303771973">
        <ele>453.879638671875</ele>
        <time>2008-02-03T11:19:49Z</time>
      </trkpt>
      <trkpt lat="45.886437892913818" lon="8.728015422821045">
        <ele>453.879638671875</ele>
        <time>2008-02-03T11:20:01Z</time>
      </trkpt>
      <trkpt lat="45.88639497756958" lon="8.728294372558594">
        <ele>453.879638671875</ele>
        <time>2008-02-03T11:20:18Z</time>
      </trkpt>
      <trkpt lat="45.886416435241699" lon="8.72840166091919">
        <ele>453.879638671875</ele>
        <time>2008-02-03T11:20:24Z</time>
      </trkpt>
      <trkpt lat="45.886437892913818" lon="8.728466033935547">
        <ele>453.879638671875</ele>
        <time>2008-02-03T11:20:28Z</time>
      </trkpt>
      <trkpt lat="45.886459350585938" lon="8.728530406951904">
        <ele>453.879638671875</ele>
        <time>2008-02-03T11:20:32Z</time>
      </trkpt>
      <trkpt lat="45.886523723602295" lon="8.728744983673096">
        <ele>453.879638671875</ele>
        <time>2008-02-03T11:20:43Z</time>
      </trkpt>
      <trkpt lat="45.886523723602295" lon="8.728916645050049">
        <ele>453.879638671875</ele>
        <time>2008-02-03T11:20:56Z</time>
      </trkpt>
      <trkpt lat="45.886330604553223" lon="8.729045391082764">
        <ele>455.80224609375</ele>
        <time>2008-02-03T11:24:27Z</time>
      </trkpt>
      <trkpt lat="45.886352062225342" lon="8.729174137115479">
        <ele>455.80224609375</ele>
        <time>2008-02-03T11:24:42Z</time>
      </trkpt>
      <trkpt lat="45.886373519897461" lon="8.729345798492432">
        <ele>458.20556640625</ele>
        <time>2008-02-03T11:24:55Z</time>
      </trkpt>
      <trkpt lat="45.88639497756958" lon="8.729581832885742">
        <ele>458.6861572265625</ele>
        <time>2008-02-03T11:25:07Z</time>
      </trkpt>
      <trkpt lat="45.886437892913818" lon="8.729796409606934">
        <ele>459.1668701171875</ele>
        <time>2008-02-03T11:25:19Z</time>
      </trkpt>
      <trkpt lat="45.886437892913818" lon="8.729946613311768">
        <ele>459.1668701171875</ele>
        <time>2008-02-03T11:25:28Z</time>
      </trkpt>
      <trkpt lat="45.886459350585938" lon="8.729989528656006">
        <ele>459.6475830078125</ele>
        <time>2008-02-03T11:25:31Z</time>
      </trkpt>
      <trkpt lat="45.886523723602295" lon="8.730268478393555">
        <ele>459.6475830078125</ele>
        <time>2008-02-03T11:25:46Z</time>
      </trkpt>
      <trkpt lat="45.886588096618652" lon="8.730461597442627">
        <ele>460.128173828125</ele>
        <time>2008-02-03T11:25:56Z</time>
      </trkpt>
      <trkpt lat="45.886631011962891" lon="8.730697631835938">
        <ele>460.6087646484375</ele>
        <time>2008-02-03T11:26:07Z</time>
      </trkpt>
      <trkpt lat="45.886695384979248" lon="8.731019496917725">
        <ele>461.0894775390625</ele>
        <time>2008-02-03T11:26:20Z</time>
      </trkpt>
      <trkpt lat="45.886738300323486" lon="8.731255531311035">
        <ele>461.5701904296875</ele>
        <time>2008-02-03T11:26:30Z</time>
      </trkpt>
      <trkpt lat="45.886802673339844" lon="8.731663227081299">
        <ele>462.05078125</ele>
        <time>2008-02-03T11:26:46Z</time>
      </trkpt>
      <trkpt lat="45.886781215667725" lon="8.732049465179443">
        <ele>462.5313720703125</ele>
        <time>2008-02-03T11:27:02Z</time>
      </trkpt>
      <trkpt lat="45.886759757995605" lon="8.732414245605469">
        <ele>463.0120849609375</ele>
        <time>2008-02-03T11:27:16Z</time>
      </trkpt>
      <trkpt lat="45.886781215667725" lon="8.73288631439209">
        <ele>463.4927978515625</ele>
        <time>2008-02-03T11:27:31Z</time>
      </trkpt>
      <trkpt lat="45.886845588684082" lon="8.733336925506592">
        <ele>465.41552734375</ele>
        <time>2008-02-03T11:27:46Z</time>
      </trkpt>
      <trkpt lat="45.886845588684082" lon="8.733830451965332">
        <ele>465.41552734375</ele>
        <time>2008-02-03T11:28:02Z</time>
      </trkpt>
      <trkpt lat="45.886781215667725" lon="8.734238147735596">
        <ele>465.8961181640625</ele>
        <time>2008-02-03T11:28:15Z</time>
      </trkpt>
      <trkpt lat="45.886631011962891" lon="8.734602928161621">
        <ele>465.8961181640625</ele>
        <time>2008-02-03T11:28:26Z</time>
      </trkpt>
      <trkpt lat="45.886459350585938" lon="8.734946250915527">
        <ele>466.857421875</ele>
        <time>2008-02-03T11:28:39Z</time>
      </trkpt>
      <trkpt lat="45.886437892913818" lon="8.735010623931885">
        <ele>469.2607421875</ele>
        <time>2008-02-03T11:28:45Z</time>
      </trkpt>
      <trkpt lat="45.886631011962891" lon="8.735289573669434">
        <ele>530.78515625</ele>
        <time>2008-02-03T11:31:15Z</time>
      </trkpt>
      <trkpt lat="45.886480808258057" lon="8.73537540435791">
        <ele>530.78515625</ele>
        <time>2008-02-03T11:31:24Z</time>
      </trkpt>
      <trkpt lat="45.886244773864746" lon="8.735504150390625">
        <ele>526.4591064453125</ele>
        <time>2008-02-03T11:31:33Z</time>
      </trkpt>
      <trkpt lat="45.88615894317627" lon="8.735783100128174">
        <ele>525.497802734375</ele>
        <time>2008-02-03T11:31:45Z</time>
      </trkpt>
      <trkpt lat="45.88615894317627" lon="8.736147880554199">
        <ele>523.0946044921875</ele>
        <time>2008-02-03T11:32:00Z</time>
      </trkpt>
      <trkpt lat="45.886051654815674" lon="8.736405372619629">
        <ele>522.6138916015625</ele>
        <time>2008-02-03T11:32:12Z</time>
      </trkpt>
      <trkpt lat="45.885815620422363" lon="8.73664140701294">
        <ele>521.652587890625</ele>
        <time>2008-02-03T11:32:27Z</time>
      </trkpt>
      <trkpt lat="45.885493755340576" lon="8.736963272094727">
        <ele>518.287841796875</ele>
        <time>2008-02-03T11:32:45Z</time>
      </trkpt>
      <trkpt lat="45.885214805603027" lon="8.737263679504395">
        <ele>516.365234375</ele>
        <time>2008-02-03T11:33:02Z</time>
      </trkpt>
      <trkpt lat="45.885086059570313" lon="8.737456798553467">
        <ele>517.32666015625</ele>
        <time>2008-02-03T11:33:13Z</time>
      </trkpt>
      <trkpt lat="45.884957313537598" lon="8.737757205963135">
        <ele>514.442626953125</ele>
        <time>2008-02-03T11:33:25Z</time>
      </trkpt>
      <trkpt lat="45.884764194488525" lon="8.738079071044922">
        <ele>513.9620361328125</ele>
        <time>2008-02-03T11:33:37Z</time>
      </trkpt>
      <trkpt lat="45.884699821472168" lon="8.738250732421875">
        <ele>514.92333984375</ele>
        <time>2008-02-03T11:33:45Z</time>
      </trkpt>
      <trkpt lat="45.884571075439453" lon="8.7386155128479">
        <ele>515.8846435546875</ele>
        <time>2008-02-03T11:33:58Z</time>
      </trkpt>
      <trkpt lat="45.8843994140625" lon="8.738744258880615">
        <ele>514.442626953125</ele>
        <time>2008-02-03T11:34:06Z</time>
      </trkpt>
      <trkpt lat="45.884249210357666" lon="8.738765716552734">
        <ele>513.4814453125</ele>
        <time>2008-02-03T11:34:14Z</time>
      </trkpt>
      <trkpt lat="45.884163379669189" lon="8.73887300491333">
        <ele>513.4814453125</ele>
        <time>2008-02-03T11:34:22Z</time>
      </trkpt>
      <trkpt lat="45.884056091308594" lon="8.739066123962402">
        <ele>514.92333984375</ele>
        <time>2008-02-03T11:34:32Z</time>
      </trkpt>
      <trkpt lat="45.884077548980713" lon="8.73938798904419">
        <ele>515.404052734375</ele>
        <time>2008-02-03T11:34:44Z</time>
      </trkpt>
      <trkpt lat="45.88414192199707" lon="8.739817142486572">
        <ele>513.9620361328125</ele>
        <time>2008-02-03T11:34:54Z</time>
      </trkpt>
      <trkpt lat="45.884056091308594" lon="8.740224838256836">
        <ele>513.9620361328125</ele>
        <time>2008-02-03T11:35:05Z</time>
      </trkpt>
      <trkpt lat="45.883841514587402" lon="8.740482330322266">
        <ele>513.9620361328125</ele>
        <time>2008-02-03T11:35:18Z</time>
      </trkpt>
      <trkpt lat="45.883841514587402" lon="8.740675449371338">
        <ele>513.9620361328125</ele>
        <time>2008-02-03T11:35:28Z</time>
      </trkpt>
      <trkpt lat="45.884034633636475" lon="8.74086856842041">
        <ele>513.9620361328125</ele>
        <time>2008-02-03T11:35:37Z</time>
      </trkpt>
      <trkpt lat="45.884184837341309" lon="8.741061687469482">
        <ele>513.9620361328125</ele>
        <time>2008-02-03T11:35:44Z</time>
      </trkpt>
      <trkpt lat="45.884335041046143" lon="8.741447925567627">
        <ele>513.9620361328125</ele>
        <time>2008-02-03T11:35:58Z</time>
      </trkpt>
      <trkpt lat="45.884442329406738" lon="8.741898536682129">
        <ele>513.9620361328125</ele>
        <time>2008-02-03T11:36:10Z</time>
      </trkpt>
      <trkpt lat="45.884678363800049" lon="8.742263317108154">
        <ele>513.9620361328125</ele>
        <time>2008-02-03T11:36:20Z</time>
      </trkpt>
      <trkpt lat="45.884978771209717" lon="8.742778301239014">
        <ele>513.9620361328125</ele>
        <time>2008-02-03T11:36:32Z</time>
      </trkpt>
      <trkpt lat="45.885257720947266" lon="8.74361515045166">
        <ele>513.9620361328125</ele>
        <time>2008-02-03T11:36:47Z</time>
      </trkpt>
      <trkpt lat="45.885429382324219" lon="8.744280338287354">
        <ele>512.0394287109375</ele>
        <time>2008-02-03T11:36:59Z</time>
      </trkpt>
      <trkpt lat="45.885601043701172" lon="8.744902610778809">
        <ele>510.5972900390625</ele>
        <time>2008-02-03T11:37:14Z</time>
      </trkpt>
      <trkpt lat="45.885879993438721" lon="8.745160102844238">
        <ele>511.0780029296875</ele>
        <time>2008-02-03T11:37:26Z</time>
      </trkpt>
      <trkpt lat="45.885879993438721" lon="8.745138645172119">
        <ele>511.0780029296875</ele>
        <time>2008-02-03T11:37:30Z</time>
      </trkpt>
      <trkpt lat="45.885944366455078" lon="8.7451171875">
        <ele>511.0780029296875</ele>
        <time>2008-02-03T11:37:34Z</time>
      </trkpt>
      <trkpt lat="45.88613748550415" lon="8.745009899139404">
        <ele>509.6361083984375</ele>
        <time>2008-02-03T11:37:49Z</time>
      </trkpt>
      <trkpt lat="45.886330604553223" lon="8.744795322418213">
        <ele>509.6361083984375</ele>
        <time>2008-02-03T11:38:02Z</time>
      </trkpt>
      <trkpt lat="45.886759757995605" lon="8.744280338287354">
        <ele>509.6361083984375</ele>
        <time>2008-02-03T11:38:43Z</time>
      </trkpt>
      <trkpt lat="45.886266231536865" lon="8.74462366104126">
        <ele>490.890380859375</ele>
        <time>2008-02-03T11:39:01Z</time>
      </trkpt>
      <trkpt lat="45.886373519897461" lon="8.744580745697022">
        <ele>493.2935791015625</ele>
        <time>2008-02-03T11:39:10Z</time>
      </trkpt>
      <trkpt lat="45.886437892913818" lon="8.744537830352783">
        <ele>493.2935791015625</ele>
        <time>2008-02-03T11:39:19Z</time>
      </trkpt>
      <trkpt lat="45.886523723602295" lon="8.744237422943115">
        <ele>492.3323974609375</ele>
        <time>2008-02-03T11:39:33Z</time>
      </trkpt>
      <trkpt lat="45.886545181274414" lon="8.744215965270996">
        <ele>491.8516845703125</ele>
        <time>2008-02-03T11:39:34Z</time>
      </trkpt>
      <trkpt lat="45.88665246963501" lon="8.744194507598877">
        <ele>490.890380859375</ele>
        <time>2008-02-03T11:39:41Z</time>
      </trkpt>
      <trkpt lat="45.886673927307129" lon="8.744194507598877">
        <ele>490.890380859375</ele>
        <time>2008-02-03T11:39:50Z</time>
      </trkpt>
      <trkpt lat="45.886695384979248" lon="8.744173049926758">
        <ele>490.4097900390625</ele>
        <time>2008-02-03T11:40:03Z</time>
      </trkpt>
      <trkpt lat="45.886759757995605" lon="8.74413013458252">
        <ele>495.6968994140625</ele>
        <time>2008-02-03T11:41:21Z</time>
      </trkpt>
      <trkpt lat="45.886781215667725" lon="8.744215965270996">
        <ele>494.735595703125</ele>
        <time>2008-02-03T11:41:25Z</time>
      </trkpt>
      <trkpt lat="45.886845588684082" lon="8.744537830352783">
        <ele>494.2550048828125</ele>
        <time>2008-02-03T11:41:34Z</time>
      </trkpt>
      <trkpt lat="45.886952877044678" lon="8.745052814483643">
        <ele>494.2550048828125</ele>
        <time>2008-02-03T11:41:47Z</time>
      </trkpt>
      <trkpt lat="45.887081623077393" lon="8.745632171630859">
        <ele>495.2161865234375</ele>
        <time>2008-02-03T11:42:00Z</time>
      </trkpt>
      <trkpt lat="45.887188911437988" lon="8.746254444122315">
        <ele>495.6968994140625</ele>
        <time>2008-02-03T11:42:14Z</time>
      </trkpt>
      <trkpt lat="45.887360572814941" lon="8.74685525894165">
        <ele>496.177734375</ele>
        <time>2008-02-03T11:42:28Z</time>
      </trkpt>
      <trkpt lat="45.887575149536133" lon="8.747498989105225">
        <ele>497.138916015625</ele>
        <time>2008-02-03T11:42:42Z</time>
      </trkpt>
      <trkpt lat="45.887789726257324" lon="8.748078346252441">
        <ele>497.61962890625</ele>
        <time>2008-02-03T11:42:54Z</time>
      </trkpt>
      <trkpt lat="45.888025760650635" lon="8.748764991760254">
        <ele>499.0615234375</ele>
        <time>2008-02-03T11:43:07Z</time>
      </trkpt>
      <trkpt lat="45.888218879699707" lon="8.749322891235352">
        <ele>499.0615234375</ele>
        <time>2008-02-03T11:43:17Z</time>
      </trkpt>
      <trkpt lat="45.888476371765137" lon="8.750030994415283">
        <ele>499.0615234375</ele>
        <time>2008-02-03T11:43:30Z</time>
      </trkpt>
      <trkpt lat="45.888733863830566" lon="8.750739097595215">
        <ele>500.02294921875</ele>
        <time>2008-02-03T11:43:43Z</time>
      </trkpt>
      <trkpt lat="45.889012813568115" lon="8.751339912414551">
        <ele>500.02294921875</ele>
        <time>2008-02-03T11:43:54Z</time>
      </trkpt>
      <trkpt lat="45.88939905166626" lon="8.751833438873291">
        <ele>501.46484375</ele>
        <time>2008-02-03T11:44:06Z</time>
      </trkpt>
      <trkpt lat="45.889914035797119" lon="8.752434253692627">
        <ele>501.945556640625</ele>
        <time>2008-02-03T11:44:21Z</time>
      </trkpt>
      <trkpt lat="45.890343189239502" lon="8.752949237823486">
        <ele>501.945556640625</ele>
        <time>2008-02-03T11:44:34Z</time>
      </trkpt>
      <trkpt lat="45.89064359664917" lon="8.753464221954346">
        <ele>502.4261474609375</ele>
        <time>2008-02-03T11:44:45Z</time>
      </trkpt>
      <trkpt lat="45.890858173370361" lon="8.754043579101563">
        <ele>503.8681640625</ele>
        <time>2008-02-03T11:44:56Z</time>
      </trkpt>
      <trkpt lat="45.890922546386719" lon="8.754236698150635">
        <ele>503.8681640625</ele>
        <time>2008-02-03T11:45:00Z</time>
      </trkpt>
      <trkpt lat="45.891094207763672" lon="8.754944801330566">
        <ele>502.90673828125</ele>
        <time>2008-02-03T11:45:13Z</time>
      </trkpt>
      <trkpt lat="45.891244411468506" lon="8.755545616149902">
        <ele>502.90673828125</ele>
        <time>2008-02-03T11:45:23Z</time>
      </trkpt>
      <trkpt lat="45.891244411468506" lon="8.755674362182617">
        <ele>502.90673828125</ele>
        <time>2008-02-03T11:45:25Z</time>
      </trkpt>
      <trkpt lat="45.891115665435791" lon="8.756017684936523">
        <ele>500.5035400390625</ele>
        <time>2008-02-03T11:45:32Z</time>
      </trkpt>
      <trkpt lat="45.891029834747314" lon="8.756425380706787">
        <ele>498.5809326171875</ele>
        <time>2008-02-03T11:45:38Z</time>
      </trkpt>
      <trkpt lat="45.891008377075195" lon="8.756468296051025">
        <ele>498.5809326171875</ele>
        <time>2008-02-03T11:45:39Z</time>
      </trkpt>
      <trkpt lat="45.890836715698242" lon="8.756661415100098">
        <ele>498.100341796875</ele>
        <time>2008-02-03T11:45:44Z</time>
      </trkpt>
      <trkpt lat="45.890600681304932" lon="8.756618499755859">
        <ele>498.5809326171875</ele>
        <time>2008-02-03T11:45:49Z</time>
      </trkpt>
      <trkpt lat="45.890321731567383" lon="8.756768703460693">
        <ele>498.5809326171875</ele>
        <time>2008-02-03T11:45:56Z</time>
      </trkpt>
      <trkpt lat="45.890278816223145" lon="8.75685453414917">
        <ele>498.5809326171875</ele>
        <time>2008-02-03T11:45:58Z</time>
      </trkpt>
      <trkpt lat="45.890214443206787" lon="8.757197856903076">
        <ele>499.0615234375</ele>
        <time>2008-02-03T11:46:04Z</time>
      </trkpt>
      <trkpt lat="45.890278816223145" lon="8.757734298706055">
        <ele>500.5035400390625</ele>
        <time>2008-02-03T11:46:14Z</time>
      </trkpt>
      <trkpt lat="45.890364646911621" lon="8.758442401885986">
        <ele>503.8681640625</ele>
        <time>2008-02-03T11:46:28Z</time>
      </trkpt>
      <trkpt lat="45.890429019927979" lon="8.759064674377441">
        <ele>506.7520751953125</ele>
        <time>2008-02-03T11:46:40Z</time>
      </trkpt>
      <trkpt lat="45.890536308288574" lon="8.759901523590088">
        <ele>508.194091796875</ele>
        <time>2008-02-03T11:46:55Z</time>
      </trkpt>
      <trkpt lat="45.890579223632812" lon="8.760416507720947">
        <ele>508.194091796875</ele>
        <time>2008-02-03T11:47:02Z</time>
      </trkpt>
      <trkpt lat="45.890600681304932" lon="8.760502338409424">
        <ele>508.194091796875</ele>
        <time>2008-02-03T11:47:03Z</time>
      </trkpt>
      <trkpt lat="45.890300273895264" lon="8.760759830474854">
        <ele>505.3101806640625</ele>
        <time>2008-02-03T11:47:08Z</time>
      </trkpt>
      <trkpt lat="45.889678001403809" lon="8.760931491851807">
        <ele>502.4261474609375</ele>
        <time>2008-02-03T11:47:15Z</time>
      </trkpt>
      <trkpt lat="45.889592170715332" lon="8.760974407196045">
        <ele>502.4261474609375</ele>
        <time>2008-02-03T11:47:16Z</time>
      </trkpt>
      <trkpt lat="45.889270305633545" lon="8.761188983917236">
        <ele>502.90673828125</ele>
        <time>2008-02-03T11:47:21Z</time>
      </trkpt>
      <trkpt lat="45.889184474945068" lon="8.761446475982666">
        <ele>503.387451171875</ele>
        <time>2008-02-03T11:47:25Z</time>
      </trkpt>
      <trkpt lat="45.889270305633545" lon="8.761897087097168">
        <ele>503.387451171875</ele>
        <time>2008-02-03T11:47:33Z</time>
      </trkpt>
      <trkpt lat="45.889527797698975" lon="8.762197494506836">
        <ele>503.8681640625</ele>
        <time>2008-02-03T11:47:42Z</time>
      </trkpt>
      <trkpt lat="45.890107154846191" lon="8.762648105621338">
        <ele>503.387451171875</ele>
        <time>2008-02-03T11:48:01Z</time>
      </trkpt>
      <trkpt lat="45.890235900878906" lon="8.762733936309815">
        <ele>504.348876953125</ele>
        <time>2008-02-03T11:48:08Z</time>
      </trkpt>
      <trkpt lat="45.890364646911621" lon="8.762969970703125">
        <ele>504.348876953125</ele>
        <time>2008-02-03T11:48:19Z</time>
      </trkpt>
      <trkpt lat="45.890557765960693" lon="8.763399124145508">
        <ele>507.2327880859375</ele>
        <time>2008-02-03T11:48:30Z</time>
      </trkpt>
      <trkpt lat="45.890922546386719" lon="8.76410722732544">
        <ele>506.7520751953125</ele>
        <time>2008-02-03T11:48:45Z</time>
      </trkpt>
      <trkpt lat="45.891330242156982" lon="8.764922618865967">
        <ele>506.7520751953125</ele>
        <time>2008-02-03T11:49:01Z</time>
      </trkpt>
      <trkpt lat="45.891501903533936" lon="8.765330314636231">
        <ele>506.7520751953125</ele>
        <time>2008-02-03T11:49:08Z</time>
      </trkpt>
      <trkpt lat="45.891437530517578" lon="8.76558780670166">
        <ele>505.7908935546875</ele>
        <time>2008-02-03T11:49:13Z</time>
      </trkpt>
      <trkpt lat="45.891180038452148" lon="8.76610279083252">
        <ele>506.271484375</ele>
        <time>2008-02-03T11:49:24Z</time>
      </trkpt>
      <trkpt lat="45.890836715698242" lon="8.766703605651856">
        <ele>506.271484375</ele>
        <time>2008-02-03T11:49:38Z</time>
      </trkpt>
      <trkpt lat="45.890815258026123" lon="8.766767978668213">
        <ele>506.271484375</ele>
        <time>2008-02-03T11:49:39Z</time>
      </trkpt>
      <trkpt lat="45.891008377075195" lon="8.766767978668213">
        <ele>506.7520751953125</ele>
        <time>2008-02-03T11:49:45Z</time>
      </trkpt>
      <trkpt lat="45.891501903533936" lon="8.766510486602783">
        <ele>506.7520751953125</ele>
        <time>2008-02-03T11:49:57Z</time>
      </trkpt>
      <trkpt lat="45.891609191894531" lon="8.766467571258545">
        <ele>506.7520751953125</ele>
        <time>2008-02-03T11:50:00Z</time>
      </trkpt>
      <trkpt lat="45.891802310943604" lon="8.766617774963379">
        <ele>506.271484375</ele>
        <time>2008-02-03T11:50:05Z</time>
      </trkpt>
      <trkpt lat="45.891973972320557" lon="8.766896724700928">
        <ele>506.271484375</ele>
        <time>2008-02-03T11:50:10Z</time>
      </trkpt>
      <trkpt lat="45.892360210418701" lon="8.767883777618408">
        <ele>505.7908935546875</ele>
        <time>2008-02-03T11:50:27Z</time>
      </trkpt>
      <trkpt lat="45.892531871795654" lon="8.768806457519531">
        <ele>509.1553955078125</ele>
        <time>2008-02-03T11:50:42Z</time>
      </trkpt>
      <trkpt lat="45.892596244812012" lon="8.769814968109131">
        <ele>508.6746826171875</ele>
        <time>2008-02-03T11:50:57Z</time>
      </trkpt>
      <trkpt lat="45.892553329467773" lon="8.769965171813965">
        <ele>508.6746826171875</ele>
        <time>2008-02-03T11:50:59Z</time>
      </trkpt>
      <trkpt lat="45.892167091369629" lon="8.770973682403565">
        <ele>508.6746826171875</ele>
        <time>2008-02-03T11:51:09Z</time>
      </trkpt>
      <trkpt lat="45.891737937927246" lon="8.772046566009522">
        <ele>509.6361083984375</ele>
        <time>2008-02-03T11:51:18Z</time>
      </trkpt>
      <trkpt lat="45.891373157501221" lon="8.773269653320313">
        <ele>510.11669921875</ele>
        <time>2008-02-03T11:51:28Z</time>
      </trkpt>
      <trkpt lat="45.891158580780029" lon="8.773956298828125">
        <ele>509.1553955078125</ele>
        <time>2008-02-03T11:51:34Z</time>
      </trkpt>
      <trkpt lat="45.890514850616455" lon="8.774278163909912">
        <ele>508.6746826171875</ele>
        <time>2008-02-03T11:51:43Z</time>
      </trkpt>
      <trkpt lat="45.88963508605957" lon="8.774492740631104">
        <ele>509.6361083984375</ele>
        <time>2008-02-03T11:51:55Z</time>
      </trkpt>
      <trkpt lat="45.88914155960083" lon="8.77457857131958">
        <ele>509.6361083984375</ele>
        <time>2008-02-03T11:52:02Z</time>
      </trkpt>
      <trkpt lat="45.889034271240234" lon="8.774793148040772">
        <ele>509.6361083984375</ele>
        <time>2008-02-03T11:52:05Z</time>
      </trkpt>
      <trkpt lat="45.88890552520752" lon="8.775393962860107">
        <ele>509.1553955078125</ele>
        <time>2008-02-03T11:52:12Z</time>
      </trkpt>
      <trkpt lat="45.8888840675354" lon="8.775544166564941">
        <ele>509.1553955078125</ele>
        <time>2008-02-03T11:52:14Z</time>
      </trkpt>
      <trkpt lat="45.888798236846924" lon="8.775780200958252">
        <ele>509.1553955078125</ele>
        <time>2008-02-03T11:52:17Z</time>
      </trkpt>
      <trkpt lat="45.888304710388184" lon="8.776423931121826">
        <ele>510.11669921875</ele>
        <time>2008-02-03T11:52:30Z</time>
      </trkpt>
      <trkpt lat="45.887961387634277" lon="8.776745796203613">
        <ele>510.11669921875</ele>
        <time>2008-02-03T11:52:39Z</time>
      </trkpt>
      <trkpt lat="45.887424945831299" lon="8.777217864990234">
        <ele>506.7520751953125</ele>
        <time>2008-02-03T11:52:55Z</time>
      </trkpt>
      <trkpt lat="45.886759757995605" lon="8.777797222137451">
        <ele>504.348876953125</ele>
        <time>2008-02-03T11:53:17Z</time>
      </trkpt>
      <trkpt lat="45.88615894317627" lon="8.778247833251953">
        <ele>503.8681640625</ele>
        <time>2008-02-03T11:53:33Z</time>
      </trkpt>
      <trkpt lat="45.886116027832031" lon="8.778462409973145">
        <ele>503.8681640625</ele>
        <time>2008-02-03T11:53:36Z</time>
      </trkpt>
      <trkpt lat="45.886201858520508" lon="8.779234886169434">
        <ele>503.387451171875</ele>
        <time>2008-02-03T11:53:45Z</time>
      </trkpt>
      <trkpt lat="45.886287689208984" lon="8.779556751251221">
        <ele>503.387451171875</ele>
        <time>2008-02-03T11:53:50Z</time>
      </trkpt>
      <trkpt lat="45.886716842651367" lon="8.780114650726318">
        <ele>503.8681640625</ele>
        <time>2008-02-03T11:54:02Z</time>
      </trkpt>
      <trkpt lat="45.887274742126465" lon="8.780844211578369">
        <ele>504.8294677734375</ele>
        <time>2008-02-03T11:54:18Z</time>
      </trkpt>
      <trkpt lat="45.887854099273682" lon="8.780951499938965">
        <ele>503.8681640625</ele>
        <time>2008-02-03T11:54:30Z</time>
      </trkpt>
      <trkpt lat="45.888261795043945" lon="8.781037330627441">
        <ele>502.90673828125</ele>
        <time>2008-02-03T11:54:39Z</time>
      </trkpt>
      <trkpt lat="45.888755321502686" lon="8.781359195709229">
        <ele>500.5035400390625</ele>
        <time>2008-02-03T11:54:49Z</time>
      </trkpt>
      <trkpt lat="45.889034271240234" lon="8.781552314758301">
        <ele>499.542236328125</ele>
        <time>2008-02-03T11:54:54Z</time>
      </trkpt>
      <trkpt lat="45.889205932617188" lon="8.781895637512207">
        <ele>499.0615234375</ele>
        <time>2008-02-03T11:54:59Z</time>
      </trkpt>
      <trkpt lat="45.889205932617188" lon="8.78206729888916">
        <ele>498.5809326171875</ele>
        <time>2008-02-03T11:55:01Z</time>
      </trkpt>
      <trkpt lat="45.889184474945068" lon="8.783483505249023">
        <ele>500.02294921875</ele>
        <time>2008-02-03T11:55:17Z</time>
      </trkpt>
      <trkpt lat="45.889205932617188" lon="8.784277439117432">
        <ele>500.5035400390625</ele>
        <time>2008-02-03T11:55:26Z</time>
      </trkpt>
      <trkpt lat="45.889334678649902" lon="8.785049915313721">
        <ele>500.5035400390625</ele>
        <time>2008-02-03T11:55:37Z</time>
      </trkpt>
      <trkpt lat="45.889463424682617" lon="8.785779476165772">
        <ele>502.4261474609375</ele>
        <time>2008-02-03T11:55:48Z</time>
      </trkpt>
      <trkpt lat="45.889549255371094" lon="8.786616325378418">
        <ele>504.348876953125</ele>
        <time>2008-02-03T11:56:00Z</time>
      </trkpt>
      <trkpt lat="45.889613628387451" lon="8.787302970886231">
        <ele>508.194091796875</ele>
        <time>2008-02-03T11:56:11Z</time>
      </trkpt>
      <trkpt lat="45.88963508605957" lon="8.787860870361328">
        <ele>508.6746826171875</ele>
        <time>2008-02-03T11:56:22Z</time>
      </trkpt>
      <trkpt lat="45.889592170715332" lon="8.788118362426758">
        <ele>509.1553955078125</ele>
        <time>2008-02-03T11:56:30Z</time>
      </trkpt>
      <trkpt lat="45.889570713043213" lon="8.788182735443115">
        <ele>508.6746826171875</ele>
        <time>2008-02-03T11:56:36Z</time>
      </trkpt>
      <trkpt lat="45.889570713043213" lon="8.788204193115234">
        <ele>507.2327880859375</ele>
        <time>2008-02-03T11:58:48Z</time>
      </trkpt>
      <trkpt lat="45.889441967010498" lon="8.788397312164307">
        <ele>508.6746826171875</ele>
        <time>2008-02-03T11:58:56Z</time>
      </trkpt>
      <trkpt lat="45.889291763305664" lon="8.788590431213379">
        <ele>508.6746826171875</ele>
        <time>2008-02-03T11:59:04Z</time>
      </trkpt>
      <trkpt lat="45.889034271240234" lon="8.78880500793457">
        <ele>507.7135009765625</ele>
        <time>2008-02-03T11:59:13Z</time>
      </trkpt>
      <trkpt lat="45.888755321502686" lon="8.788976669311523">
        <ele>507.2327880859375</ele>
        <time>2008-02-03T11:59:22Z</time>
      </trkpt>
      <trkpt lat="45.888347625732422" lon="8.789298534393311">
        <ele>506.7520751953125</ele>
        <time>2008-02-03T11:59:36Z</time>
      </trkpt>
      <trkpt lat="45.888090133666992" lon="8.789727687835693">
        <ele>507.2327880859375</ele>
        <time>2008-02-03T11:59:47Z</time>
      </trkpt>
      <trkpt lat="45.888004302978516" lon="8.790199756622315">
        <ele>507.7135009765625</ele>
        <time>2008-02-03T11:59:55Z</time>
      </trkpt>
      <trkpt lat="45.887939929962158" lon="8.790972232818604">
        <ele>508.6746826171875</ele>
        <time>2008-02-03T12:00:08Z</time>
      </trkpt>
      <trkpt lat="45.887854099273682" lon="8.791873455047607">
        <ele>508.6746826171875</ele>
        <time>2008-02-03T12:00:24Z</time>
      </trkpt>
      <trkpt lat="45.887746810913086" lon="8.792903423309326">
        <ele>508.6746826171875</ele>
        <time>2008-02-03T12:00:43Z</time>
      </trkpt>
      <trkpt lat="45.887553691864014" lon="8.793461322784424">
        <ele>508.6746826171875</ele>
        <time>2008-02-03T12:00:54Z</time>
      </trkpt>
      <trkpt lat="45.887231826782227" lon="8.793869018554688">
        <ele>509.1553955078125</ele>
        <time>2008-02-03T12:01:03Z</time>
      </trkpt>
      <trkpt lat="45.886673927307129" lon="8.794362545013428">
        <ele>509.1553955078125</ele>
        <time>2008-02-03T12:01:15Z</time>
      </trkpt>
      <trkpt lat="45.885965824127197" lon="8.795027732849121">
        <ele>509.6361083984375</ele>
        <time>2008-02-03T12:01:29Z</time>
      </trkpt>
      <trkpt lat="45.88538646697998" lon="8.795413970947266">
        <ele>509.1553955078125</ele>
        <time>2008-02-03T12:01:39Z</time>
      </trkpt>
      <trkpt lat="45.88465690612793" lon="8.795778751373291">
        <ele>508.194091796875</ele>
        <time>2008-02-03T12:01:50Z</time>
      </trkpt>
      <trkpt lat="45.883927345275879" lon="8.796207904815674">
        <ele>507.2327880859375</ele>
        <time>2008-02-03T12:02:03Z</time>
      </trkpt>
      <trkpt lat="45.883090496063232" lon="8.796744346618652">
        <ele>506.7520751953125</ele>
        <time>2008-02-03T12:02:18Z</time>
      </trkpt>
      <trkpt lat="45.882596969604492" lon="8.79704475402832">
        <ele>507.2327880859375</ele>
        <time>2008-02-03T12:02:27Z</time>
      </trkpt>
      <trkpt lat="45.882017612457275" lon="8.797667026519775">
        <ele>507.7135009765625</ele>
        <time>2008-02-03T12:02:41Z</time>
      </trkpt>
      <trkpt lat="45.881609916687012" lon="8.798139095306397">
        <ele>508.6746826171875</ele>
        <time>2008-02-03T12:02:53Z</time>
      </trkpt>
      <trkpt lat="45.881052017211914" lon="8.798782825469971">
        <ele>513.4814453125</ele>
        <time>2008-02-03T12:03:10Z</time>
      </trkpt>
      <trkpt lat="45.880601406097412" lon="8.799319267272949">
        <ele>516.845947265625</ele>
        <time>2008-02-03T12:03:24Z</time>
      </trkpt>
      <trkpt lat="45.880322456359863" lon="8.799705505371094">
        <ele>520.2105712890625</ele>
        <time>2008-02-03T12:03:34Z</time>
      </trkpt>
      <trkpt lat="45.880107879638672" lon="8.800220489501953">
        <ele>523.0946044921875</ele>
        <time>2008-02-03T12:03:45Z</time>
      </trkpt>
      <trkpt lat="45.87989330291748" lon="8.800649642944336">
        <ele>525.497802734375</ele>
        <time>2008-02-03T12:03:56Z</time>
      </trkpt>
      <trkpt lat="45.879635810852051" lon="8.801100254058838">
        <ele>528.3818359375</ele>
        <time>2008-02-03T12:04:09Z</time>
      </trkpt>
      <trkpt lat="45.879335403442383" lon="8.801507949829102">
        <ele>529.82373046875</ele>
        <time>2008-02-03T12:04:24Z</time>
      </trkpt>
      <trkpt lat="45.879013538360596" lon="8.801958560943604">
        <ele>530.78515625</ele>
        <time>2008-02-03T12:04:43Z</time>
      </trkpt>
      <trkpt lat="45.878798961639404" lon="8.802237510681152">
        <ele>531.2657470703125</ele>
        <time>2008-02-03T12:04:55Z</time>
      </trkpt>
      <trkpt lat="45.878605842590332" lon="8.802387714385986">
        <ele>530.304443359375</ele>
        <time>2008-02-03T12:05:05Z</time>
      </trkpt>
      <trkpt lat="45.878348350524902" lon="8.80255937576294">
        <ele>531.2657470703125</ele>
        <time>2008-02-03T12:05:18Z</time>
      </trkpt>
      <trkpt lat="45.878112316131592" lon="8.802752494812012">
        <ele>531.746337890625</ele>
        <time>2008-02-03T12:05:30Z</time>
      </trkpt>
      <trkpt lat="45.877833366394043" lon="8.802924156188965">
        <ele>532.707763671875</ele>
        <time>2008-02-03T12:05:43Z</time>
      </trkpt>
      <trkpt lat="45.877597332000732" lon="8.803095817565918">
        <ele>533.6689453125</ele>
        <time>2008-02-03T12:05:57Z</time>
      </trkpt>
      <trkpt lat="45.877382755279541" lon="8.803331851959229">
        <ele>536.5531005859375</ele>
        <time>2008-02-03T12:06:12Z</time>
      </trkpt>
      <trkpt lat="45.87716817855835" lon="8.803589344024658">
        <ele>538.4757080078125</ele>
        <time>2008-02-03T12:06:28Z</time>
      </trkpt>
      <trkpt lat="45.87691068649292" lon="8.803932666778565">
        <ele>540.87890625</ele>
        <time>2008-02-03T12:06:46Z</time>
      </trkpt>
      <trkpt lat="45.876739025115967" lon="8.804147243499756">
        <ele>541.3594970703125</ele>
        <time>2008-02-03T12:06:58Z</time>
      </trkpt>
      <trkpt lat="45.876481533050537" lon="8.804469108581543">
        <ele>543.2821044921875</ele>
        <time>2008-02-03T12:07:16Z</time>
      </trkpt>
      <trkpt lat="45.876224040985107" lon="8.804619312286377">
        <ele>543.2821044921875</ele>
        <time>2008-02-03T12:07:30Z</time>
      </trkpt>
      <trkpt lat="45.875966548919678" lon="8.804726600646973">
        <ele>542.801513671875</ele>
        <time>2008-02-03T12:07:44Z</time>
      </trkpt>
      <trkpt lat="45.875730514526367" lon="8.80479097366333">
        <ele>544.7242431640625</ele>
        <time>2008-02-03T12:07:56Z</time>
      </trkpt>
      <trkpt lat="45.875473022460938" lon="8.804812431335449">
        <ele>549.53076171875</ele>
        <time>2008-02-03T12:08:09Z</time>
      </trkpt>
      <trkpt lat="45.875194072723389" lon="8.804812431335449">
        <ele>552.895263671875</ele>
        <time>2008-02-03T12:08:22Z</time>
      </trkpt>
      <trkpt lat="45.875022411346436" lon="8.804812431335449">
        <ele>554.81787109375</ele>
        <time>2008-02-03T12:08:30Z</time>
      </trkpt>
      <trkpt lat="45.874743461608887" lon="8.804833889007568">
        <ele>555.779296875</ele>
        <time>2008-02-03T12:08:42Z</time>
      </trkpt>
      <trkpt lat="45.874485969543457" lon="8.804941177368164">
        <ele>555.779296875</ele>
        <time>2008-02-03T12:08:54Z</time>
      </trkpt>
      <trkpt lat="45.874142646789551" lon="8.805155754089356">
        <ele>556.74072265625</ele>
        <time>2008-02-03T12:09:08Z</time>
      </trkpt>
      <trkpt lat="45.873949527740479" lon="8.805327415466309">
        <ele>557.7021484375</ele>
        <time>2008-02-03T12:09:18Z</time>
      </trkpt>
      <trkpt lat="45.873734951019287" lon="8.805499076843262">
        <ele>557.7021484375</ele>
        <time>2008-02-03T12:09:26Z</time>
      </trkpt>
      <trkpt lat="45.873391628265381" lon="8.805670738220215">
        <ele>558.182861328125</ele>
        <time>2008-02-03T12:09:36Z</time>
      </trkpt>
      <trkpt lat="45.873327255249023" lon="8.805713653564453">
        <ele>558.182861328125</ele>
        <time>2008-02-03T12:09:42Z</time>
      </trkpt>
      <trkpt lat="45.873327255249023" lon="8.805713653564453">
        <ele>558.182861328125</ele>
        <time>2008-02-03T12:09:47Z</time>
      </trkpt>
      <trkpt lat="45.873241424560547" lon="8.805820941925049">
        <ele>571.160400390625</ele>
        <time>2008-02-03T12:12:43Z</time>
      </trkpt>
      <trkpt lat="45.873048305511475" lon="8.805863857269287">
        <ele>568.757080078125</ele>
        <time>2008-02-03T12:12:49Z</time>
      </trkpt>
      <trkpt lat="45.872790813446045" lon="8.805949687957764">
        <ele>566.353759765625</ele>
        <time>2008-02-03T12:12:57Z</time>
      </trkpt>
      <trkpt lat="45.872361660003662" lon="8.806099891662598">
        <ele>565.392578125</ele>
        <time>2008-02-03T12:13:12Z</time>
      </trkpt>
      <trkpt lat="45.871803760528564" lon="8.806099891662598">
        <ele>563.950439453125</ele>
        <time>2008-02-03T12:13:27Z</time>
      </trkpt>
      <trkpt lat="45.871353149414063" lon="8.806056976318359">
        <ele>562.508544921875</ele>
        <time>2008-02-03T12:13:42Z</time>
      </trkpt>
      <trkpt lat="45.870881080627441" lon="8.805992603302002">
        <ele>562.028076171875</ele>
        <time>2008-02-03T12:13:57Z</time>
      </trkpt>
      <trkpt lat="45.870344638824463" lon="8.805756568908691">
        <ele>562.508544921875</ele>
        <time>2008-02-03T12:14:16Z</time>
      </trkpt>
      <trkpt lat="45.86991548538208" lon="8.805563449859619">
        <ele>562.508544921875</ele>
        <time>2008-02-03T12:14:30Z</time>
      </trkpt>
      <trkpt lat="45.869464874267578" lon="8.805391788482666">
        <ele>561.54736328125</ele>
        <time>2008-02-03T12:14:43Z</time>
      </trkpt>
      <trkpt lat="45.869314670562744" lon="8.805649280548096">
        <ele>561.54736328125</ele>
        <time>2008-02-03T12:14:51Z</time>
      </trkpt>
      <trkpt lat="45.869185924530029" lon="8.805842399597168">
        <ele>561.066650390625</ele>
        <time>2008-02-03T12:14:59Z</time>
      </trkpt>
      <trkpt lat="45.868971347808838" lon="8.80603551864624">
        <ele>560.105224609375</ele>
        <time>2008-02-03T12:15:09Z</time>
      </trkpt>
      <trkpt lat="45.868735313415527" lon="8.806250095367432">
        <ele>560.5859375</ele>
        <time>2008-02-03T12:15:21Z</time>
      </trkpt>
      <trkpt lat="45.868434906005859" lon="8.806421756744385">
        <ele>560.105224609375</ele>
        <time>2008-02-03T12:15:33Z</time>
      </trkpt>
      <trkpt lat="45.868048667907715" lon="8.806464672088623">
        <ele>560.5859375</ele>
        <time>2008-02-03T12:15:48Z</time>
      </trkpt>
      <trkpt lat="45.867791175842285" lon="8.806443214416504">
        <ele>562.9892578125</ele>
        <time>2008-02-03T12:15:56Z</time>
      </trkpt>
      <trkpt lat="45.867598056793213" lon="8.8065505027771">
        <ele>564.911865234375</ele>
        <time>2008-02-03T12:16:02Z</time>
      </trkpt>
      <trkpt lat="45.867469310760498" lon="8.806636333465576">
        <ele>565.392578125</ele>
        <time>2008-02-03T12:16:06Z</time>
      </trkpt>
      <trkpt lat="45.867276191711426" lon="8.806850910186768">
        <ele>565.392578125</ele>
        <time>2008-02-03T12:16:12Z</time>
      </trkpt>
      <trkpt lat="45.86716890335083" lon="8.80704402923584">
        <ele>565.392578125</ele>
        <time>2008-02-03T12:16:16Z</time>
      </trkpt>
      <trkpt lat="45.866889953613281" lon="8.807001113891602">
        <ele>564.911865234375</ele>
        <time>2008-02-03T12:16:24Z</time>
      </trkpt>
      <trkpt lat="45.866825580596924" lon="8.806979656219482">
        <ele>564.911865234375</ele>
        <time>2008-02-03T12:16:26Z</time>
      </trkpt>
      <trkpt lat="45.866503715515137" lon="8.80704402923584">
        <ele>566.83447265625</ele>
        <time>2008-02-03T12:16:33Z</time>
      </trkpt>
      <trkpt lat="45.866332054138184" lon="8.80704402923584">
        <ele>567.315185546875</ele>
        <time>2008-02-03T12:16:37Z</time>
      </trkpt>
      <trkpt lat="45.86618185043335" lon="8.807001113891602">
        <ele>566.83447265625</ele>
        <time>2008-02-03T12:16:40Z</time>
      </trkpt>
      <trkpt lat="45.86592435836792" lon="8.806872367858887">
        <ele>565.873291015625</ele>
        <time>2008-02-03T12:16:45Z</time>
      </trkpt>
      <trkpt lat="45.865709781646729" lon="8.806915283203125">
        <ele>564.911865234375</ele>
        <time>2008-02-03T12:16:49Z</time>
      </trkpt>
      <trkpt lat="45.865623950958252" lon="8.807172775268555">
        <ele>564.911865234375</ele>
        <time>2008-02-03T12:16:53Z</time>
      </trkpt>
      <trkpt lat="45.865645408630371" lon="8.807258605957031">
        <ele>564.911865234375</ele>
        <time>2008-02-03T12:16:54Z</time>
      </trkpt>
      <trkpt lat="45.865495204925537" lon="8.807752132415772">
        <ele>564.911865234375</ele>
        <time>2008-02-03T12:17:04Z</time>
      </trkpt>
      <trkpt lat="45.86517333984375" lon="8.808116912841797">
        <ele>564.911865234375</ele>
        <time>2008-02-03T12:17:15Z</time>
      </trkpt>
      <trkpt lat="45.864572525024414" lon="8.808932304382324">
        <ele>564.911865234375</ele>
        <time>2008-02-03T12:17:39Z</time>
      </trkpt>
      <trkpt lat="45.864465236663818" lon="8.809103965759277">
        <ele>564.911865234375</ele>
        <time>2008-02-03T12:17:45Z</time>
      </trkpt>
      <trkpt lat="45.864636898040771" lon="8.808631896972656">
        <ele>564.43115234375</ele>
        <time>2008-02-03T12:18:00Z</time>
      </trkpt>
      <trkpt lat="45.864894390106201" lon="8.808631896972656">
        <ele>564.43115234375</ele>
        <time>2008-02-03T12:18:10Z</time>
      </trkpt>
      <trkpt lat="45.864894390106201" lon="8.808717727661133">
        <ele>564.43115234375</ele>
        <time>2008-02-03T12:19:15Z</time>
      </trkpt>
      <trkpt lat="45.864272117614746" lon="8.808417320251465">
        <ele>555.779296875</ele>
        <time>2008-02-03T12:19:23Z</time>
      </trkpt>
      <trkpt lat="45.864143371582031" lon="8.808374404907227">
        <ele>552.41455078125</ele>
        <time>2008-02-03T12:19:31Z</time>
      </trkpt>
      <trkpt lat="45.863950252532959" lon="8.808395862579346">
        <ele>550.4921875</ele>
        <time>2008-02-03T12:19:38Z</time>
      </trkpt>
      <trkpt lat="45.863778591156006" lon="8.808395862579346">
        <ele>550.4921875</ele>
        <time>2008-02-03T12:19:42Z</time>
      </trkpt>
      <trkpt lat="45.863285064697266" lon="8.80854606628418">
        <ele>550.4921875</ele>
        <time>2008-02-03T12:19:54Z</time>
      </trkpt>
      <trkpt lat="45.86317777633667" lon="8.808524608612061">
        <ele>550.4921875</ele>
        <time>2008-02-03T12:19:56Z</time>
      </trkpt>
      <trkpt lat="45.862898826599121" lon="8.808460235595703">
        <ele>550.4921875</ele>
        <time>2008-02-03T12:20:01Z</time>
      </trkpt>
      <trkpt lat="45.862641334533691" lon="8.808588981628418">
        <ele>550.011474609375</ele>
        <time>2008-02-03T12:20:06Z</time>
      </trkpt>
      <trkpt lat="45.862233638763428" lon="8.808910846710205">
        <ele>548.5693359375</ele>
        <time>2008-02-03T12:20:15Z</time>
      </trkpt>
      <trkpt lat="45.861654281616211" lon="8.809490203857422">
        <ele>548.5693359375</ele>
        <time>2008-02-03T12:20:29Z</time>
      </trkpt>
      <trkpt lat="45.861568450927734" lon="8.809576034545898">
        <ele>548.5693359375</ele>
        <time>2008-02-03T12:20:31Z</time>
      </trkpt>
      <trkpt lat="45.86143970489502" lon="8.809640407562256">
        <ele>548.5693359375</ele>
        <time>2008-02-03T12:20:34Z</time>
      </trkpt>
      <trkpt lat="45.861139297485352" lon="8.809597492218018">
        <ele>547.12744140625</ele>
        <time>2008-02-03T12:20:46Z</time>
      </trkpt>
      <trkpt lat="45.861032009124756" lon="8.80953311920166">
        <ele>547.608154296875</ele>
        <time>2008-02-03T12:20:50Z</time>
      </trkpt>
      <trkpt lat="45.860495567321777" lon="8.809404373168945">
        <ele>548.0888671875</ele>
        <time>2008-02-03T12:21:10Z</time>
      </trkpt>
      <trkpt lat="45.860152244567871" lon="8.809318542480469">
        <ele>547.608154296875</ele>
        <time>2008-02-03T12:21:20Z</time>
      </trkpt>
      <trkpt lat="45.859808921813965" lon="8.809211254119873">
        <ele>547.12744140625</ele>
        <time>2008-02-03T12:21:31Z</time>
      </trkpt>
      <trkpt lat="45.859379768371582" lon="8.809125423431397">
        <ele>545.685546875</ele>
        <time>2008-02-03T12:21:42Z</time>
      </trkpt>
      <trkpt lat="45.858736038208008" lon="8.809061050415039">
        <ele>544.24365234375</ele>
        <time>2008-02-03T12:21:51Z</time>
      </trkpt>
      <trkpt lat="45.858328342437744" lon="8.808910846710205">
        <ele>543.2821044921875</ele>
        <time>2008-02-03T12:22:03Z</time>
      </trkpt>
      <trkpt lat="45.858113765716553" lon="8.808953762054443">
        <ele>543.2821044921875</ele>
        <time>2008-02-03T12:22:10Z</time>
      </trkpt>
      <trkpt lat="45.85792064666748" lon="8.809082508087158">
        <ele>542.801513671875</ele>
        <time>2008-02-03T12:22:18Z</time>
      </trkpt>
      <trkpt lat="45.857748985290527" lon="8.809189796447754">
        <ele>542.3209228515625</ele>
        <time>2008-02-03T12:22:26Z</time>
      </trkpt>
      <trkpt lat="45.857405662536621" lon="8.809254169464111">
        <ele>540.87890625</ele>
        <time>2008-02-03T12:22:38Z</time>
      </trkpt>
      <trkpt lat="45.856955051422119" lon="8.809425830841065">
        <ele>541.3594970703125</ele>
        <time>2008-02-03T12:22:51Z</time>
      </trkpt>
      <trkpt lat="45.856590270996094" lon="8.809468746185303">
        <ele>543.2821044921875</ele>
        <time>2008-02-03T12:23:01Z</time>
      </trkpt>
      <trkpt lat="45.856482982635498" lon="8.809447288513184">
        <ele>543.7628173828125</ele>
        <time>2008-02-03T12:23:07Z</time>
      </trkpt>
      <trkpt lat="45.856375694274902" lon="8.809447288513184">
        <ele>545.685546875</ele>
        <time>2008-02-03T12:23:26Z</time>
      </trkpt>
      <trkpt lat="45.856118202209473" lon="8.809490203857422">
        <ele>545.204833984375</ele>
        <time>2008-02-03T12:23:34Z</time>
      </trkpt>
      <trkpt lat="45.8559250831604" lon="8.809425830841065">
        <ele>542.801513671875</ele>
        <time>2008-02-03T12:23:44Z</time>
      </trkpt>
      <trkpt lat="45.855882167816162" lon="8.809404373168945">
        <ele>541.8402099609375</ele>
        <time>2008-02-03T12:23:52Z</time>
      </trkpt>
      <trkpt lat="45.855731964111328" lon="8.809382915496826">
        <ele>549.53076171875</ele>
        <time>2008-02-03T12:29:51Z</time>
      </trkpt>
      <trkpt lat="45.855710506439209" lon="8.809404373168945">
        <ele>548.0888671875</ele>
        <time>2008-02-03T12:30:07Z</time>
      </trkpt>
      <trkpt lat="45.855603218078613" lon="8.809447288513184">
        <ele>547.12744140625</ele>
        <time>2008-02-03T12:30:16Z</time>
      </trkpt>
      <trkpt lat="45.855367183685303" lon="8.809490203857422">
        <ele>548.0888671875</ele>
        <time>2008-02-03T12:30:26Z</time>
      </trkpt>
      <trkpt lat="45.855045318603516" lon="8.809576034545898">
        <ele>548.0888671875</ele>
        <time>2008-02-03T12:30:34Z</time>
      </trkpt>
      <trkpt lat="45.854744911193848" lon="8.809683322906494">
        <ele>548.0888671875</ele>
        <time>2008-02-03T12:30:40Z</time>
      </trkpt>
      <trkpt lat="45.854165554046631" lon="8.809618949890137">
        <ele>547.12744140625</ele>
        <time>2008-02-03T12:30:52Z</time>
      </trkpt>
      <trkpt lat="45.853886604309082" lon="8.809554576873779">
        <ele>547.608154296875</ele>
        <time>2008-02-03T12:30:58Z</time>
      </trkpt>
      <trkpt lat="45.853886604309082" lon="8.80953311920166">
        <ele>548.0888671875</ele>
        <time>2008-02-03T12:31:01Z</time>
      </trkpt>
      <trkpt lat="45.853672027587891" lon="8.809490203857422">
        <ele>547.608154296875</ele>
        <time>2008-02-03T12:31:09Z</time>
      </trkpt>
      <trkpt lat="45.853393077850342" lon="8.80929708480835">
        <ele>547.12744140625</ele>
        <time>2008-02-03T12:31:16Z</time>
      </trkpt>
      <trkpt lat="45.853092670440674" lon="8.80903959274292">
        <ele>546.6468505859375</ele>
        <time>2008-02-03T12:31:27Z</time>
      </trkpt>
      <trkpt lat="45.852835178375244" lon="8.808996677398682">
        <ele>546.166259765625</ele>
        <time>2008-02-03T12:31:31Z</time>
      </trkpt>
      <trkpt lat="45.852384567260742" lon="8.80878210067749">
        <ele>545.204833984375</ele>
        <time>2008-02-03T12:31:35Z</time>
      </trkpt>
      <trkpt lat="45.852127075195313" lon="8.808588981628418">
        <ele>542.3209228515625</ele>
        <time>2008-02-03T12:31:44Z</time>
      </trkpt>
      <trkpt lat="45.851976871490479" lon="8.808524608612061">
        <ele>539.9176025390625</ele>
        <time>2008-02-03T12:31:48Z</time>
      </trkpt>
      <trkpt lat="45.851783752441406" lon="8.808481693267822">
        <ele>537.9949951171875</ele>
        <time>2008-02-03T12:31:52Z</time>
      </trkpt>
      <trkpt lat="45.851719379425049" lon="8.808481693267822">
        <ele>537.03369140625</ele>
        <time>2008-02-03T12:31:56Z</time>
      </trkpt>
      <trkpt lat="45.851676464080811" lon="8.80854606628418">
        <ele>539.4368896484375</ele>
        <time>2008-02-03T12:32:33Z</time>
      </trkpt>
      <trkpt lat="45.851526260375977" lon="8.808674812316895">
        <ele>536.0723876953125</ele>
        <time>2008-02-03T12:32:43Z</time>
      </trkpt>
      <trkpt lat="45.851333141326904" lon="8.808825016021729">
        <ele>534.149658203125</ele>
        <time>2008-02-03T12:32:53Z</time>
      </trkpt>
      <trkpt lat="45.851140022277832" lon="8.808996677398682">
        <ele>533.1883544921875</ele>
        <time>2008-02-03T12:33:03Z</time>
      </trkpt>
      <trkpt lat="45.850925445556641" lon="8.809211254119873">
        <ele>533.1883544921875</ele>
        <time>2008-02-03T12:33:12Z</time>
      </trkpt>
      <trkpt lat="45.850753784179688" lon="8.809382915496826">
        <ele>535.1109619140625</ele>
        <time>2008-02-03T12:33:19Z</time>
      </trkpt>
      <trkpt lat="45.850603580474854" lon="8.809554576873779">
        <ele>535.1109619140625</ele>
        <time>2008-02-03T12:33:26Z</time>
      </trkpt>
      <trkpt lat="45.850238800048828" lon="8.810069561004639">
        <ele>535.1109619140625</ele>
        <time>2008-02-03T12:33:40Z</time>
      </trkpt>
      <trkpt lat="45.850024223327637" lon="8.810606002807617">
        <ele>535.1109619140625</ele>
        <time>2008-02-03T12:33:52Z</time>
      </trkpt>
      <trkpt lat="45.849874019622803" lon="8.810927867889404">
        <ele>535.1109619140625</ele>
        <time>2008-02-03T12:34:01Z</time>
      </trkpt>
      <trkpt lat="45.849637985229492" lon="8.811550140380859">
        <ele>535.1109619140625</ele>
        <time>2008-02-03T12:34:17Z</time>
      </trkpt>
      <trkpt lat="45.849616527557373" lon="8.811614513397217">
        <ele>531.2657470703125</ele>
        <time>2008-02-03T12:34:23Z</time>
      </trkpt>
      <trkpt lat="45.849637985229492" lon="8.811593055725098">
        <ele>516.365234375</ele>
        <time>2008-02-03T12:36:38Z</time>
      </trkpt>
      <trkpt lat="45.849423408508301" lon="8.811743259429932">
        <ele>513.000732421875</ele>
        <time>2008-02-03T12:36:52Z</time>
      </trkpt>
      <trkpt lat="45.849251747131348" lon="8.811872005462647">
        <ele>511.5587158203125</ele>
        <time>2008-02-03T12:37:03Z</time>
      </trkpt>
      <trkpt lat="45.848972797393799" lon="8.8120436668396">
        <ele>509.1553955078125</ele>
        <time>2008-02-03T12:37:17Z</time>
      </trkpt>
      <trkpt lat="45.848758220672607" lon="8.812172412872315">
        <ele>507.7135009765625</ele>
        <time>2008-02-03T12:37:27Z</time>
      </trkpt>
      <trkpt lat="45.848414897918701" lon="8.812344074249268">
        <ele>507.2327880859375</ele>
        <time>2008-02-03T12:37:42Z</time>
      </trkpt>
      <trkpt lat="45.848221778869629" lon="8.812408447265625">
        <ele>507.2327880859375</ele>
        <time>2008-02-03T12:37:50Z</time>
      </trkpt>
      <trkpt lat="45.848178863525391" lon="8.812386989593506">
        <ele>507.7135009765625</ele>
        <time>2008-02-03T12:37:57Z</time>
      </trkpt>
      <trkpt lat="45.848071575164795" lon="8.812301158905029">
        <ele>506.7520751953125</ele>
        <time>2008-02-03T12:38:10Z</time>
      </trkpt>
      <trkpt lat="45.847899913787842" lon="8.812129497528076">
        <ele>505.7908935546875</ele>
        <time>2008-02-03T12:38:19Z</time>
      </trkpt>
      <trkpt lat="45.847663879394531" lon="8.811829090118408">
        <ele>505.3101806640625</ele>
        <time>2008-02-03T12:38:31Z</time>
      </trkpt>
      <trkpt lat="45.847342014312744" lon="8.811378479003906">
        <ele>502.4261474609375</ele>
        <time>2008-02-03T12:38:49Z</time>
      </trkpt>
      <trkpt lat="45.847299098968506" lon="8.811314105987549">
        <ele>500.02294921875</ele>
        <time>2008-02-03T12:38:57Z</time>
      </trkpt>
      <trkpt lat="45.847299098968506" lon="8.81129264831543">
        <ele>497.138916015625</ele>
        <time>2008-02-03T12:39:13Z</time>
      </trkpt>
      <trkpt lat="45.847084522247314" lon="8.811163902282715">
        <ele>496.177734375</ele>
        <time>2008-02-03T12:39:19Z</time>
      </trkpt>
      <trkpt lat="45.847063064575195" lon="8.811120986938477">
        <ele>496.177734375</ele>
        <time>2008-02-03T12:39:21Z</time>
      </trkpt>
      <trkpt lat="45.8469557762146" lon="8.810842037200928">
        <ele>493.7742919921875</ele>
        <time>2008-02-03T12:39:27Z</time>
      </trkpt>
      <trkpt lat="45.846891403198242" lon="8.810842037200928">
        <ele>488.9677734375</ele>
        <time>2008-02-03T12:39:33Z</time>
      </trkpt>
      <trkpt lat="45.84693431854248" lon="8.810756206512451">
        <ele>481.2772216796875</ele>
        <time>2008-02-03T12:40:04Z</time>
      </trkpt>
      <trkpt lat="45.846912860870361" lon="8.810756206512451">
        <ele>472.6253662109375</ele>
        <time>2008-02-03T12:40:15Z</time>
      </trkpt>
      <trkpt lat="45.846869945526123" lon="8.810670375823975">
        <ele>464.934814453125</ele>
        <time>2008-02-03T12:40:49Z</time>
      </trkpt>
      <trkpt lat="45.8469557762146" lon="8.810713291168213">
        <ele>463.973388671875</ele>
        <time>2008-02-03T12:42:57Z</time>
      </trkpt>
      <trkpt lat="45.846891403198242" lon="8.810970783233643">
        <ele>464.4541015625</ele>
        <time>2008-02-03T12:43:02Z</time>
      </trkpt>
      <trkpt lat="45.846869945526123" lon="8.811120986938477">
        <ele>464.4541015625</ele>
        <time>2008-02-03T12:43:04Z</time>
      </trkpt>
      <trkpt lat="45.846741199493408" lon="8.811249732971191">
        <ele>463.973388671875</ele>
        <time>2008-02-03T12:43:08Z</time>
      </trkpt>
      <trkpt lat="45.846633911132813" lon="8.811078071594238">
        <ele>463.4927978515625</ele>
        <time>2008-02-03T12:43:11Z</time>
      </trkpt>
      <trkpt lat="45.846462249755859" lon="8.810520172119141">
        <ele>462.05078125</ele>
        <time>2008-02-03T12:43:18Z</time>
      </trkpt>
      <trkpt lat="45.84644079208374" lon="8.810434341430664">
        <ele>462.05078125</ele>
        <time>2008-02-03T12:43:19Z</time>
      </trkpt>
      <trkpt lat="45.846161842346191" lon="8.809962272644043">
        <ele>459.6475830078125</ele>
        <time>2008-02-03T12:43:26Z</time>
      </trkpt>
      <trkpt lat="45.846118927001953" lon="8.809919357299805">
        <ele>459.6475830078125</ele>
        <time>2008-02-03T12:43:27Z</time>
      </trkpt>
      <trkpt lat="45.845990180969238" lon="8.809983730316162">
        <ele>458.20556640625</ele>
        <time>2008-02-03T12:43:31Z</time>
      </trkpt>
      <trkpt lat="45.845968723297119" lon="8.810133934020996">
        <ele>458.20556640625</ele>
        <time>2008-02-03T12:43:33Z</time>
      </trkpt>
      <trkpt lat="45.845925807952881" lon="8.81028413772583">
        <ele>458.20556640625</ele>
        <time>2008-02-03T12:43:35Z</time>
      </trkpt>
      <trkpt lat="45.845818519592285" lon="8.81028413772583">
        <ele>457.7249755859375</ele>
        <time>2008-02-03T12:43:39Z</time>
      </trkpt>
      <trkpt lat="45.84568977355957" lon="8.809983730316162">
        <ele>456.7635498046875</ele>
        <time>2008-02-03T12:43:48Z</time>
      </trkpt>
      <trkpt lat="45.845432281494141" lon="8.809404373168945">
        <ele>457.7249755859375</ele>
        <time>2008-02-03T12:44:10Z</time>
      </trkpt>
      <trkpt lat="45.845131874084473" lon="8.808889389038086">
        <ele>457.2442626953125</ele>
        <time>2008-02-03T12:44:33Z</time>
      </trkpt>
      <trkpt lat="45.84496021270752" lon="8.808653354644775">
        <ele>456.282958984375</ele>
        <time>2008-02-03T12:44:45Z</time>
      </trkpt>
      <trkpt lat="45.844895839691162" lon="8.808331489562988">
        <ele>456.7635498046875</ele>
        <time>2008-02-03T12:45:01Z</time>
      </trkpt>
      <trkpt lat="45.844874382019043" lon="8.807837963104248">
        <ele>456.7635498046875</ele>
        <time>2008-02-03T12:45:21Z</time>
      </trkpt>
      <trkpt lat="45.8449387550354" lon="8.807408809661865">
        <ele>456.7635498046875</ele>
        <time>2008-02-03T12:45:38Z</time>
      </trkpt>
      <trkpt lat="45.84496021270752" lon="8.807065486907959">
        <ele>457.7249755859375</ele>
        <time>2008-02-03T12:45:50Z</time>
      </trkpt>
      <trkpt lat="45.84496021270752" lon="8.806915283203125">
        <ele>458.20556640625</ele>
        <time>2008-02-03T12:45:56Z</time>
      </trkpt>
      <trkpt lat="45.844917297363281" lon="8.806421756744385">
        <ele>458.20556640625</ele>
        <time>2008-02-03T12:46:12Z</time>
      </trkpt>
      <trkpt lat="45.844895839691162" lon="8.806335926055908">
        <ele>458.6861572265625</ele>
        <time>2008-02-03T12:46:16Z</time>
      </trkpt>
      <trkpt lat="45.844724178314209" lon="8.806078433990479">
        <ele>460.6087646484375</ele>
        <time>2008-02-03T12:46:28Z</time>
      </trkpt>
      <trkpt lat="45.844573974609375" lon="8.806078433990479">
        <ele>461.5701904296875</ele>
        <time>2008-02-03T12:46:35Z</time>
      </trkpt>
      <trkpt lat="45.844402313232422" lon="8.806228637695313">
        <ele>460.6087646484375</ele>
        <time>2008-02-03T12:46:44Z</time>
      </trkpt>
      <trkpt lat="45.844166278839111" lon="8.806443214416504">
        <ele>460.6087646484375</ele>
        <time>2008-02-03T12:46:54Z</time>
      </trkpt>
      <trkpt lat="45.843822956085205" lon="8.806765079498291">
        <ele>461.0894775390625</ele>
        <time>2008-02-03T12:47:08Z</time>
      </trkpt>
      <trkpt lat="45.84369421005249" lon="8.806872367858887">
        <ele>461.0894775390625</ele>
        <time>2008-02-03T12:47:13Z</time>
      </trkpt>
      <trkpt lat="45.843522548675537" lon="8.807065486907959">
        <ele>461.0894775390625</ele>
        <time>2008-02-03T12:47:20Z</time>
      </trkpt>
      <trkpt lat="45.843265056610107" lon="8.80728006362915">
        <ele>460.6087646484375</ele>
        <time>2008-02-03T12:47:30Z</time>
      </trkpt>
      <trkpt lat="45.843243598937988" lon="8.80730152130127">
        <ele>461.0894775390625</ele>
        <time>2008-02-03T12:47:38Z</time>
      </trkpt>
      <trkpt lat="45.84320068359375" lon="8.807344436645508">
        <ele>464.934814453125</ele>
        <time>2008-02-03T12:48:36Z</time>
      </trkpt>
      <trkpt lat="45.843071937561035" lon="8.807516098022461">
        <ele>464.934814453125</ele>
        <time>2008-02-03T12:48:42Z</time>
      </trkpt>
      <trkpt lat="45.84270715713501" lon="8.807816505432129">
        <ele>464.4541015625</ele>
        <time>2008-02-03T12:48:52Z</time>
      </trkpt>
      <trkpt lat="45.842299461364746" lon="8.808181285858154">
        <ele>463.973388671875</ele>
        <time>2008-02-03T12:49:03Z</time>
      </trkpt>
      <trkpt lat="45.841870307922363" lon="8.808567523956299">
        <ele>463.0120849609375</ele>
        <time>2008-02-03T12:49:15Z</time>
      </trkpt>
      <trkpt lat="45.841612815856934" lon="8.808846473693848">
        <ele>462.05078125</ele>
        <time>2008-02-03T12:49:24Z</time>
      </trkpt>
      <trkpt lat="45.841376781463623" lon="8.808996677398682">
        <ele>462.05078125</ele>
        <time>2008-02-03T12:49:33Z</time>
      </trkpt>
      <trkpt lat="45.841269493103027" lon="8.809061050415039">
        <ele>462.05078125</ele>
        <time>2008-02-03T12:49:42Z</time>
      </trkpt>
      <trkpt lat="45.841140747070313" lon="8.809125423431397">
        <ele>462.05078125</ele>
        <time>2008-02-03T12:49:57Z</time>
      </trkpt>
      <trkpt lat="45.840797424316406" lon="8.809468746185303">
        <ele>461.5701904296875</ele>
        <time>2008-02-03T12:50:08Z</time>
      </trkpt>
      <trkpt lat="45.840690135955811" lon="8.809618949890137">
        <ele>461.5701904296875</ele>
        <time>2008-02-03T12:50:12Z</time>
      </trkpt>
      <trkpt lat="45.840218067169189" lon="8.810369968414307">
        <ele>460.6087646484375</ele>
        <time>2008-02-03T12:50:28Z</time>
      </trkpt>
      <trkpt lat="45.840089321136475" lon="8.810498714447022">
        <ele>458.6861572265625</ele>
        <time>2008-02-03T12:50:31Z</time>
      </trkpt>
      <trkpt lat="45.839939117431641" lon="8.810520172119141">
        <ele>458.20556640625</ele>
        <time>2008-02-03T12:50:35Z</time>
      </trkpt>
      <trkpt lat="45.839874744415283" lon="8.810434341430664">
        <ele>458.20556640625</ele>
        <time>2008-02-03T12:50:38Z</time>
      </trkpt>
      <trkpt lat="45.839896202087402" lon="8.81004810333252">
        <ele>458.6861572265625</ele>
        <time>2008-02-03T12:50:47Z</time>
      </trkpt>
      <trkpt lat="45.839917659759521" lon="8.809340000152588">
        <ele>458.6861572265625</ele>
        <time>2008-02-03T12:51:01Z</time>
      </trkpt>
      <trkpt lat="45.839896202087402" lon="8.80878210067749">
        <ele>457.7249755859375</ele>
        <time>2008-02-03T12:51:11Z</time>
      </trkpt>
      <trkpt lat="45.839896202087402" lon="8.80828857421875">
        <ele>456.7635498046875</ele>
        <time>2008-02-03T12:51:18Z</time>
      </trkpt>
      <trkpt lat="45.839767456054688" lon="8.808116912841797">
        <ele>454.3602294921875</ele>
        <time>2008-02-03T12:51:23Z</time>
      </trkpt>
      <trkpt lat="45.839724540710449" lon="8.808095455169678">
        <ele>453.39892578125</ele>
        <time>2008-02-03T12:51:24Z</time>
      </trkpt>
      <trkpt lat="45.839617252349854" lon="8.80805253982544">
        <ele>449.5537109375</ele>
        <time>2008-02-03T12:51:30Z</time>
      </trkpt>
      <trkpt lat="45.839509963989258" lon="8.807859420776367">
        <ele>446.669677734375</ele>
        <time>2008-02-03T12:51:38Z</time>
      </trkpt>
      <trkpt lat="45.839338302612305" lon="8.807387351989746">
        <ele>443.7857666015625</ele>
        <time>2008-02-03T12:51:48Z</time>
      </trkpt>
      <trkpt lat="45.839102268218994" lon="8.806807994842529">
        <ele>440.4212646484375</ele>
        <time>2008-02-03T12:51:58Z</time>
      </trkpt>
      <trkpt lat="45.838737487792969" lon="8.805863857269287">
        <ele>438.017822265625</ele>
        <time>2008-02-03T12:52:12Z</time>
      </trkpt>
      <trkpt lat="45.83845853805542" lon="8.805413246154785">
        <ele>436.575927734375</ele>
        <time>2008-02-03T12:52:20Z</time>
      </trkpt>
      <trkpt lat="45.838179588317871" lon="8.805069923400879">
        <ele>436.09521484375</ele>
        <time>2008-02-03T12:52:26Z</time>
      </trkpt>
      <trkpt lat="45.837407112121582" lon="8.804662227630615">
        <ele>433.2113037109375</ele>
        <time>2008-02-03T12:52:33Z</time>
      </trkpt>
      <trkpt lat="45.837042331695557" lon="8.804340362548828">
        <ele>429.8465576171875</ele>
        <time>2008-02-03T12:52:38Z</time>
      </trkpt>
      <trkpt lat="45.836505889892578" lon="8.803739547729492">
        <ele>424.5594482421875</ele>
        <time>2008-02-03T12:52:46Z</time>
      </trkpt>
      <trkpt lat="45.835733413696289" lon="8.80305290222168">
        <ele>419.7528076171875</ele>
        <time>2008-02-03T12:52:57Z</time>
      </trkpt>
      <trkpt lat="45.835368633270264" lon="8.802752494812012">
        <ele>417.8302001953125</ele>
        <time>2008-02-03T12:53:03Z</time>
      </trkpt>
      <trkpt lat="45.835196971893311" lon="8.802580833435059">
        <ele>417.8302001953125</ele>
        <time>2008-02-03T12:53:06Z</time>
      </trkpt>
      <trkpt lat="45.8349609375" lon="8.802430629730225">
        <ele>416.868896484375</ele>
        <time>2008-02-03T12:53:12Z</time>
      </trkpt>
      <trkpt lat="45.834724903106689" lon="8.802280426025391">
        <ele>416.38818359375</ele>
        <time>2008-02-03T12:53:18Z</time>
      </trkpt>
      <trkpt lat="45.834188461303711" lon="8.801765441894531">
        <ele>414.9461669921875</ele>
        <time>2008-02-03T12:53:32Z</time>
      </trkpt>
      <trkpt lat="45.833780765533447" lon="8.801379203796387">
        <ele>413.98486328125</ele>
        <time>2008-02-03T12:53:43Z</time>
      </trkpt>
      <trkpt lat="45.833737850189209" lon="8.801336288452148">
        <ele>413.98486328125</ele>
        <time>2008-02-03T12:53:44Z</time>
      </trkpt>
      <trkpt lat="45.833544731140137" lon="8.800992965698242">
        <ele>413.5042724609375</ele>
        <time>2008-02-03T12:53:52Z</time>
      </trkpt>
      <trkpt lat="45.833351612091064" lon="8.80054235458374">
        <ele>413.5042724609375</ele>
        <time>2008-02-03T12:54:03Z</time>
      </trkpt>
      <trkpt lat="45.833308696746826" lon="8.800456523895264">
        <ele>413.0235595703125</ele>
        <time>2008-02-03T12:54:09Z</time>
      </trkpt>
      <trkpt lat="45.833287239074707" lon="8.800456523895264">
        <ele>413.5042724609375</ele>
        <time>2008-02-03T12:54:19Z</time>
      </trkpt>
    </trkseg>
  </trk>

</gpx>
